Flight Track Log - Related Links

Times and Time Zones

All times are in EDT time to prevent confusion due to time zone crossing. See the N774LA flight status page for this flight to view local times or setup timezone preferences in your user account.

Time Position Orientation Groundspeed Altitude Reporting Facility
EDT Latitude Longitude Course Direction KTS MPH feet Rate Location/Type
Sun 02:49:03 PM 49.6180 5.6290 264° West 454 522 29,000  Level FlightAware
Sun 02:49:48 PM 49.6080 5.4790 264° West 455 524 29,000  Level FlightAware
Sun 02:50:33 PM 49.5990 5.3380 264° West 457 526 29,000  Level FlightAware
Sun 02:51:18 PM 49.5860 5.1880 262° West 455 524 29,000  Level FlightAware
Sun 02:51:58 PM 49.5650 5.0620 256° West 455 524 29,000  Level FlightAware
Sun 02:52:28 PM 49.5480 4.9680 254° West 453 521 29,000  Level FlightAware
Sun 02:53:08 PM 49.5280 4.8550 255° West 452 520 29,000  Level FlightAware
Sun 02:53:48 PM 49.5030 4.7200 254° West 452 520 29,000  Level FlightAware
Sun 02:54:28 PM 49.4800 4.5940 254° West 454 522 29,000  Level FlightAware
Sun 02:55:13 PM 49.4550 4.4540 255° West 454 522 29,000  Level FlightAware
Sun 02:55:53 PM 49.4330 4.3270 255° West 454 522 29,000  Level FlightAware
Sun 02:56:38 PM 49.4120 4.1870 257° West 455 524 29,000  Level FlightAware
Sun 02:57:18 PM 49.3950 4.0610 258° West 453 521 29,000  Level FlightAware
Sun 02:57:53 PM 49.3800 3.9500 258° West 454 522 29,000  Level FlightAware
Sun 02:58:43 PM 49.3590 3.7970 258° West 453 521 29,000  Level FlightAware
Sun 02:59:23 PM 49.3410 3.6690 258° West 453 521 29,000  Level FlightAware
Sun 03:00:08 PM 49.3220 3.5400 257° West 453 521 29,000  Level FlightAware
Sun 03:00:48 PM 49.3030 3.4080 258° West 454 522 29,000  Level FlightAware
Sun 03:01:33 PM 49.2830 3.2660 258° West 452 520 29,000  Level FlightAware
Sun 03:02:13 PM 49.2640 3.1370 257° West 453 521 29,000  Level FlightAware
Sun 03:02:53 PM 49.2460 3.0150 257° West 452 520 29,000  Level FlightAware
Sun 03:03:38 PM 49.2150 2.8790 251° West 447 514 29,000  Level FlightAware
Sun 03:04:18 PM 49.1770 2.7690 242° Southwest 442 509 29,000  Level FlightAware
Sun 03:04:28 PM 49.1648 2.7349 241° Southwest 441 507 29,000  Level FlightAware
Sun 03:04:58 PM 49.1348 2.6523 241° Southwest 440 506 29,000  Level FlightAware
Sun 03:05:43 PM 49.0940 2.5410 241° Southwest 439 505 29,000  Level FlightAware
Sun 03:06:07 PM 49.0667 2.4671 241° Southwest 441 507 29,000  Level FlightAware
Sun 03:06:43 PM 49.0301 2.3679 241° Southwest 441 507 29,000  Level FlightAware
Sun 03:07:14 PM 48.9998 2.2862 241° Southwest 440 506 29,000 -2,087 Level FlightAware
Sun 03:07:29 PM 48.9837 2.2454 241° Southwest 494 568 27,400 -1,765 Descending FlightAware
Sun 03:08:05 PM 48.9476 2.1480 241° Southwest 496 571 27,500 2,043 Climbing FlightAware
Sun 03:08:16 PM 48.9368 2.1168 241° Southwest 442 509 29,000  Climbing FlightAware
Sun 03:08:35 PM 48.9178 2.0671 241° Southwest 496 571 27,500 -2,143 Descending FlightAware
Sun 03:08:58 PM 48.8947 2.0028 241° Southwest 496 571 27,500 2,250 Level FlightAware
Sun 03:09:15 PM 48.8789 1.9569 241° Southwest 442 509 29,000 1,636 Climbing FlightAware
Sun 03:09:53 PM 48.8440 1.8630 241° Southwest 442 509 29,000 -1,607 Level FlightAware
Sun 03:10:11 PM 48.8235 1.8073 241° Southwest 498 573 27,500 -2,571 Descending FlightAware
Sun 03:10:28 PM 48.8059 1.7591 241° Southwest 502 578 27,500 3,333 Level FlightAware
Sun 03:10:38 PM 48.8000 1.7430 241° Southwest 440 506 29,000  Climbing FlightAware
Sun 03:11:04 PM 48.7699 1.6623 241° Southwest 498 573 27,500  Descending FlightAware
Sun 03:11:18 PM 48.7590 1.6310 241° Southwest 436 502 29,000  Climbing FlightAware
Sun 03:11:34 PM 48.7402 1.5824 241° Southwest 496 571 27,500 -2,647 Descending FlightAware
Sun 03:11:52 PM 48.7224 1.5344 241° Southwest 496 571 27,500 3,750 Level FlightAware
Sun 03:11:58 PM 48.7210 1.5300 241° Southwest 436 502 29,000  Climbing FlightAware
Sun 03:12:16 PM 48.6983 1.4701 241° Southwest 498 573 27,500 -2,500 Descending FlightAware
Sun 03:12:34 PM 48.6806 1.4227 241° Southwest 496 571 27,500 3,333 Level FlightAware
Sun 03:12:43 PM 48.6770 1.4100 241° Southwest 437 503 29,000  Climbing FlightAware
Sun 03:12:58 PM 48.6568 1.3590 241° Southwest 496 571 27,500 -2,727 Descending FlightAware
Sun 03:13:16 PM 48.6389 1.3112 241° Southwest 496 571 27,500 3,600 Level FlightAware
Sun 03:13:23 PM 48.6350 1.2990 241° Southwest 437 503 29,000  Climbing FlightAware
Sun 03:13:40 PM 48.6152 1.2477 241° Southwest 498 573 27,500 -2,571 Descending FlightAware
Sun 03:13:58 PM 48.5972 1.1995 241° Southwest 496 571 27,500 3,214 Level FlightAware
Sun 03:14:08 PM 48.5900 1.1780 241° Southwest 436 502 29,000  Climbing FlightAware
Sun 03:14:28 PM 48.5676 1.1208 241° Southwest 496 571 27,500  Descending FlightAware
Sun 03:14:43 PM 48.5620 1.1040 241° Southwest 435 501 29,000  Climbing FlightAware
Sun 03:14:58 PM 48.5379 1.0422 241° Southwest 496 571 27,500 -2,727 Descending FlightAware
Sun 03:15:16 PM 48.5199 0.9948 240° Southwest 496 571 27,500 2,571 Level FlightAware
Sun 03:15:33 PM 48.5060 0.9560 240° Southwest 435 501 29,000  Climbing FlightAware
Sun 03:15:52 PM 48.4838 0.8999 240° Southwest 496 571 27,500 -2,432 Descending FlightAware
Sun 03:16:10 PM 48.4657 0.8527 240° Southwest 496 571 27,500 4,286 Level FlightAware
Sun 03:16:13 PM 48.4660 0.8520 240° Southwest 435 501 29,000  Climbing FlightAware
Sun 03:16:28 PM 48.4477 0.8057 240° Southwest 496 571 27,500  Descending FlightAware
Sun 03:16:48 PM 48.4300 0.7570 240° Southwest 436 502 29,000  Climbing FlightAware
Sun 03:17:04 PM 48.4119 0.7113 240° Southwest 496 571 27,500 -2,250 Descending FlightAware
Sun 03:17:28 PM 48.3876 0.6479 240° Southwest 496 571 27,500 2,647 Level FlightAware
Sun 03:17:38 PM 48.3800 0.6270 240° Southwest 436 502 29,000  Climbing FlightAware
Sun 03:18:04 PM 48.3515 0.5541 240° Southwest 496 571 27,500  Descending FlightAware
Sun 03:18:18 PM 48.3400 0.5220 240° Southwest 436 502 29,000  Climbing FlightAware
Sun 03:18:34 PM 48.3213 0.4760 240° Southwest 496 571 27,500  Descending FlightAware
Sun 03:19:03 PM 48.2940 0.4050 240° Southwest 437 503 29,000  Climbing FlightAware
Sun 03:19:22 PM 48.2725 0.3507 240° Southwest 496 571 27,500  Descending FlightAware
Sun 03:19:43 PM 48.2550 0.3030 240° Southwest 436 502 29,000 1,475 Climbing FlightAware
Sun 03:20:23 PM 48.2140 0.1990 239° Southwest 434 499 29,000  Level FlightAware
Sun 03:21:08 PM 48.1670 0.0780 240° Southwest 433 498 29,000  Level FlightAware
Sun 03:21:48 PM 48.1260 -0.0250 239° Southwest 433 498 29,000  Level FlightAware
Sun 03:22:33 PM 48.0820 -0.1380 240° Southwest 434 499 29,000  Level FlightAware
Sun 03:23:13 PM 48.0410 -0.2420 240° Southwest 434 499 29,000  Level FlightAware
Sun 03:23:53 PM 48.0000 -0.3430 239° Southwest 436 502 29,000  Level FlightAware
Sun 03:24:38 PM 47.9520 -0.4620 239° Southwest 435 501 29,000  Level FlightAware
Sun 03:25:18 PM 47.9010 -0.5540 230° Southwest 429 494 29,000  Level FlightAware
Sun 03:25:58 PM 47.8400 -0.6300 220° Southwest 429 494 29,000  Level FlightAware
Sun 03:26:43 PM 47.7720 -0.7090 218° Southwest 430 495 29,000  Level FlightAware
Sun 03:27:23 PM 47.7100 -0.7820 218° Southwest 429 494 29,000  Level FlightAware
Sun 03:28:03 PM 47.6470 -0.8560 218° Southwest 429 494 29,000  Level FlightAware
Sun 03:28:48 PM 47.5750 -0.9400 218° Southwest 429 494 29,000  Level FlightAware
Sun 03:29:28 PM 47.5130 -1.0130 219° Southwest 428 493 29,000  Level FlightAware
Sun 03:30:13 PM 47.4440 -1.0930 218° Southwest 430 495 29,000  Level FlightAware
Sun 03:30:53 PM 47.3810 -1.1650 218° Southwest 429 494 29,000  Level FlightAware
Sun 03:31:33 PM 47.3190 -1.2390 219° Southwest 430 495 29,000  Level FlightAware
Sun 03:32:18 PM 47.2480 -1.3230 219° Southwest 430 495 29,000  Level FlightAware
Sun 03:32:58 PM 47.1870 -1.3940 218° Southwest 429 494 29,000  Level FlightAware
Sun 03:33:43 PM 47.1170 -1.4760 219° Southwest 429 494 29,000  Level FlightAware
Sun 03:34:23 PM 47.0560 -1.5470 218° Southwest 429 494 29,000  Level FlightAware
Sun 03:35:08 PM 46.9840 -1.6310 219° Southwest 429 494 29,000  Level FlightAware
Sun 03:35:48 PM 46.9230 -1.7010 218° Southwest 429 494 29,000  Level FlightAware
Sun 03:36:28 PM 46.8600 -1.7730 218° Southwest 429 494 29,000  Level FlightAware
Sun 03:37:13 PM 46.7910 -1.8530 218° Southwest 429 494 29,000  Level FlightAware
Sun 03:37:53 PM 46.7290 -1.9240 218° Southwest 429 494 29,000  Level FlightAware
Sun 03:38:33 PM 46.6670 -1.9950 218° Southwest 427 491 29,000  Level FlightAware
Sun 03:39:18 PM 46.5950 -2.0760 218° Southwest 428 493 29,000  Level FlightAware
Sun 03:40:03 PM 46.5270 -2.1540 218° Southwest 426 490 29,000  Level FlightAware
Sun 03:40:43 PM 46.4640 -2.2250 218° Southwest 426 490 29,000  Level FlightAware
Sun 03:41:23 PM 46.4030 -2.2940 218° Southwest 426 490 29,000  Level FlightAware
Sun 03:42:08 PM 46.3310 -2.3750 218° Southwest 426 490 29,000  Level FlightAware
Sun 03:42:48 PM 46.2690 -2.4440 218° Southwest 427 491 29,000  Level FlightAware
Sun 03:43:33 PM 46.2000 -2.5210 218° Southwest 427 491 29,000  Level FlightAware
Sun 03:44:13 PM 46.1380 -2.5910 218° Southwest 427 491 29,000  Level FlightAware
Sun 03:44:48 PM 46.0850 -2.6490 217° Southwest 428 493 29,000  Level FlightAware
Sun 03:45:33 PM 46.0160 -2.7260 218° Southwest 428 493 29,000  Level FlightAware
Sun 03:47:03 PM 45.8810 -2.8740 217° Southwest 430 495 29,000  Level FlightAware
Sun 03:47:43 PM 45.8270 -2.9330 217° Southwest 430 495 29,000  Level FlightAware
Sun 03:48:28 PM 45.7370 -3.0330 218° Southwest 433 498 29,000  Level FlightAware
Sun 03:49:08 PM 45.6740 -3.1020 217° Southwest 433 498 29,000  Level FlightAware
Sun 03:49:53 PM 45.6100 -3.1710 217° Southwest 433 498 29,000  Level FlightAware
Sun 03:50:33 PM 45.5550 -3.2290 216° Southwest 433 498 29,000  Level FlightAware
Sun 03:51:13 PM 45.5010 -3.2880 217° Southwest 433 498 29,000  Level FlightAware
Sun 03:51:53 PM 45.4470 -3.3460 217° Southwest 433 498 29,000  Level FlightAware
Sun 03:52:33 PM 45.3920 -3.4040 217° Southwest 433 498 29,000  Level FlightAware
Sun 03:55:00 PM 45.2160 -3.7162 231° Southwest  Level Estimated
Sun 03:56:00 PM 45.1440 -3.8431 231° Southwest  Level Estimated
Sun 03:57:00 PM 45.0718 -3.9697 231° Southwest  Level Estimated
Sun 03:58:00 PM 44.9994 -4.0959 231° Southwest  Level Estimated
Sun 03:59:00 PM 44.9270 -4.2218 231° Southwest  Level Estimated
Sun 04:00:00 PM 44.8543 -4.3474 231° Southwest  Level Estimated
Sun 04:01:00 PM 44.7816 -4.4727 231° Southwest  Level Estimated
Sun 04:02:00 PM 44.7087 -4.5977 231° Southwest  Level Estimated
Sun 04:03:00 PM 44.6357 -4.7223 231° Southwest  Level Estimated
Sun 04:04:00 PM 44.5625 -4.8467 230° Southwest  Level Estimated
Sun 04:04:38 PM 44.1640 -4.6480 230° Southwest 436 502 29,000  Level FlightAware
Sun 04:05:38 PM 44.0600 -4.7360 211° Southwest 437 503 29,000  Level FlightAware
Sun 04:06:43 PM 43.9480 -4.8300 211° Southwest 435 501 29,000  Level FlightAware
Sun 04:07:28 PM 43.8700 -4.8950 211° Southwest 433 498 29,000  Level FlightAware
Sun 04:08:08 PM 43.8020 -4.9520 211° Southwest 432 497 29,000  Level FlightAware
Sun 04:08:53 PM 43.7250 -5.0160 211° Southwest 436 502 29,000  Level FlightAware
Sun 04:09:33 PM 43.6560 -5.0740 211° Southwest 434 499 29,000  Level FlightAware
Sun 04:10:08 PM 43.5970 -5.1230 211° Southwest 431 496 29,000  Level FlightAware
Sun 04:10:53 PM 43.5190 -5.1870 211° Southwest 431 496 29,000  Level FlightAware
Sun 04:11:43 PM 43.4340 -5.2600 212° Southwest 433 498 29,000  Level FlightAware
Sun 04:12:38 PM 43.3430 -5.3400 213° Southwest 435 501 29,000  Level FlightAware
Sun 04:13:13 PM 43.2820 -5.3930 212° Southwest 435 501 29,000  Level FlightAware
Sun 04:14:03 PM 43.1960 -5.4670 212° Southwest 436 502 29,000  Level FlightAware
Sun 04:14:48 PM 43.1200 -5.5330 212° Southwest 437 503 29,000  Level FlightAware
Sun 04:15:33 PM 43.0440 -5.5980 212° Southwest 436 502 29,000  Level FlightAware
Sun 04:16:18 PM 42.9690 -5.6620 212° Southwest 436 502 29,000  Level FlightAware
Sun 04:16:58 PM 42.8990 -5.7220 212° Southwest 435 501 29,000  Level FlightAware
Sun 04:17:48 PM 42.8190 -5.7910 212° Southwest 435 501 29,000  Level FlightAware
Sun 04:18:53 PM 42.7020 -5.8860 211° Southwest 434 499 29,000  Level FlightAware
Sun 04:19:38 PM 42.6250 -5.9450 209° Southwest 435 501 29,000  Level FlightAware
Sun 04:20:18 PM 42.5540 -5.9970 208° Southwest 434 499 29,000  Level FlightAware
Sun 04:20:58 PM 42.4830 -6.0500 209° Southwest 435 501 29,000  Level FlightAware
Sun 04:21:43 PM 42.4040 -6.1090 209° Southwest 435 501 29,000  Level FlightAware
Sun 04:22:23 PM 42.3340 -6.1620 209° Southwest 435 501 29,000  Level FlightAware
Sun 04:23:08 PM 42.2550 -6.2200 209° Southwest 435 501 29,000  Level FlightAware
Sun 04:23:43 PM 42.1920 -6.2660 208° Southwest 436 502 29,000  Level FlightAware
Sun 04:24:23 PM 42.1230 -6.3170 209° Southwest 435 501 29,000  Level FlightAware
Sun 04:25:08 PM 42.0440 -6.3760 209° Southwest 436 502 29,000  Level FlightAware
Sun 04:25:48 PM 41.9720 -6.4280 208° Southwest 437 503 29,000  Level FlightAware
Sun 04:26:28 PM 41.9020 -6.4790 208° Southwest 441 507 29,000  Level FlightAware
Sun 04:27:13 PM 41.8250 -6.5470 213° Southwest 441 507 29,000  Level FlightAware
Sun 04:27:53 PM 41.7650 -6.6220 223° Southwest 444 511 29,000  Level FlightAware
Sun 04:28:38 PM 41.7000 -6.7080 225° Southwest 443 510 29,000  Level FlightAware
Sun 04:29:18 PM 41.6420 -6.7830 224° Southwest 444 511 29,000  Level FlightAware
Sun 04:29:58 PM 41.5810 -6.8600 223° Southwest 447 514 29,000  Level FlightAware
Sun 04:30:43 PM 41.5160 -6.9440 224° Southwest 448 516 29,000  Level FlightAware
Sun 04:31:23 PM 41.4550 -7.0220 224° Southwest 451 519 29,000  Level FlightAware
Sun 04:32:08 PM 41.3870 -7.1090 224° Southwest 456 525 29,000  Level FlightAware
Sun 04:32:48 PM 41.3260 -7.1860 223° Southwest 458 527 29,000  Level FlightAware
Sun 04:33:28 PM 41.2660 -7.2630 224° Southwest 456 525 29,000  Level FlightAware
Sun 04:34:13 PM 41.1970 -7.3510 224° Southwest 460 529 29,000  Level FlightAware
Sun 04:34:53 PM 41.1360 -7.4280 224° Southwest 460 529 29,000  Level FlightAware
Sun 04:35:38 PM 41.0690 -7.5120 223° Southwest 463 533 29,000  Level FlightAware
Sun 04:36:18 PM 41.0040 -7.5940 224° Southwest 461 531 29,000  Level FlightAware
Sun 04:36:58 PM 40.9440 -7.6700 224° Southwest 460 529 29,000  Level FlightAware
Sun 04:37:43 PM 40.8730 -7.7590 223° Southwest 462 532 29,000  Level FlightAware
Sun 04:38:23 PM 40.8130 -7.8340 223° Southwest 464 534 29,000  Level FlightAware
Sun 04:39:03 PM 40.7490 -7.9130 223° Southwest 464 534 29,000  Level FlightAware
Sun 04:39:48 PM 40.6790 -8.0000 223° Southwest 463 533 29,000  Level FlightAware
Sun 04:40:23 PM 40.6240 -8.0680 223° Southwest 461 531 29,000  Level FlightAware
Sun 04:41:03 PM 40.5640 -8.1420 223° Southwest 459 528 29,000  Level FlightAware
Sun 04:41:48 PM 40.4980 -8.2240 223° Southwest 459 528 29,000  Level FlightAware
Sun 04:42:28 PM 40.4360 -8.3000 223° Southwest 460 529 29,000  Level FlightAware
Sun 04:43:08 PM 40.3700 -8.3800 223° Southwest 463 533 29,000  Level FlightAware
Sun 04:43:48 PM 40.3090 -8.4550 223° Southwest 466 536 29,000  Level FlightAware
Sun 04:44:48 PM 40.2170 -8.5670 223° Southwest 465 535 29,000  Level FlightAware
Sun 04:45:23 PM 40.1620 -8.6340 223° Southwest 466 536 29,000  Level FlightAware
Sun 04:46:13 PM 40.0830 -8.7290 223° Southwest 463 533 29,000  Level FlightAware
Sun 04:47:08 PM 39.9950 -8.8360 223° Southwest 464 534 29,000  Level FlightAware
Sun 04:47:48 PM 39.9310 -8.9130 223° Southwest 464 534 29,000  Level FlightAware
Sun 04:48:33 PM 39.8590 -8.9990 223° Southwest 464 534 29,000  Level FlightAware
Sun 04:49:28 PM 39.7720 -9.1030 223° Southwest 464 534 29,000  Level FlightAware
Sun 04:50:08 PM 39.7070 -9.1810 223° Southwest 464 534 29,000  Level FlightAware
Sun 04:50:53 PM 39.6360 -9.2650 222° Southwest 462 532 29,000  Level FlightAware
Sun 04:51:23 PM 39.5870 -9.3230 222° Southwest 462 532 29,000  Level FlightAware
Sun 04:52:13 PM 39.5070 -9.4170 222° Southwest 462 532 29,000  Level FlightAware
Sun 04:53:13 PM 39.4110 -9.5300 222° Southwest 459 528 29,000  Level FlightAware
Sun 04:53:48 PM 39.3550 -9.5950 222° Southwest 459 528 29,000  Level FlightAware
Sun 04:54:33 PM 39.2840 -9.6790 222° Southwest 460 529 29,000  Level FlightAware
Sun 04:55:28 PM 39.1950 -9.7820 222° Southwest 465 535 29,000 240 Level FlightAware
Sun 04:56:13 PM 39.1240 -9.8660 223° Southwest 461 531 29,400 282 Climbing FlightAware
Sun 04:56:53 PM 39.0690 -9.9300 222° Southwest 462 532 29,400  Level FlightAware
Sun 04:57:38 PM 38.9930 -10.0170 222° Southwest 463 533 29,400  Level FlightAware
Sun 04:58:18 PM 38.9270 -10.0930 222° Southwest 464 534 29,400  Level FlightAware
Sun 04:58:58 PM 38.8740 -10.1540 222° Southwest 464 534 29,400 -282 Level FlightAware
Sun 04:59:43 PM 38.7890 -10.2520 222° Southwest 457 526 29,000 -282 Descending FlightAware
Sun 05:00:23 PM 38.7250 -10.3260 222° Southwest 457 526 29,000  Level FlightAware
Sun 05:01:08 PM 38.6620 -10.3980 222° Southwest 457 526 29,000  Level FlightAware
Sun 05:01:48 PM 38.6080 -10.4600 222° Southwest 457 526 29,000  Level FlightAware
Sun 05:02:28 PM 38.5550 -10.5210 222° Southwest 457 526 29,000  Level FlightAware
Sun 05:03:08 PM 38.5010 -10.5830 222° Southwest 457 526 29,000  Level FlightAware
Sun 05:03:48 PM 38.4480 -10.6440 222° Southwest 457 526 29,000  Level FlightAware
Sun 05:04:38 PM 38.3810 -10.7210 222° Southwest 457 526 29,000 141 Level FlightAware
Sun 05:06:38 PM 38.1250 -11.0030 221° Southwest 469 540 29,400 145 Climbing FlightAware
Sun 05:07:23 PM 38.0600 -11.0750 221° Southwest 469 540 29,400  Level FlightAware
Sun 05:08:03 PM 38.0040 -11.1370 221° Southwest 469 540 29,400  Level FlightAware
Sun 05:08:43 PM 37.9490 -11.1980 221° Southwest 469 540 29,400  Level FlightAware
Sun 05:09:33 PM 37.8790 -11.2750 221° Southwest 469 540 29,400  Level FlightAware
Sun 05:10:13 PM 37.8230 -11.3360 221° Southwest 469 540 29,400 38 Level FlightAware
Sun 05:12:00 PM 37.6805 -11.5221 226° Southwest  Level Estimated
Sun 05:13:00 PM 37.6005 -11.6261 226° Southwest  Level Estimated
Sun 05:14:00 PM 37.5203 -11.7299 226° Southwest  Level Estimated
Sun 05:15:00 PM 37.4401 -11.8335 226° Southwest  Level Estimated
Sun 05:16:00 PM 37.3598 -11.9369 226° Southwest  Level Estimated
Sun 05:17:00 PM 37.2794 -12.0400 226° Southwest  Level Estimated
Sun 05:18:00 PM 37.1989 -12.1430 226° Southwest  Level Estimated
Sun 05:19:00 PM 37.1184 -12.2457 225° Southwest  Level Estimated
Sun 05:20:00 PM 37.0377 -12.3482 225° Southwest  Level Estimated
Sun 05:21:00 PM 36.9570 -12.4504 225° Southwest  Level Estimated
Sun 05:22:00 PM 36.8761 -12.5525 225° Southwest  Level Estimated
Sun 05:23:00 PM 36.7952 -12.6543 225° Southwest  Level Estimated
Sun 05:24:00 PM 36.7142 -12.7559 225° Southwest  Level Estimated
Sun 05:25:00 PM 36.6331 -12.8573 225° Southwest  Level Estimated
Sun 05:26:00 PM 36.5519 -12.9585 225° Southwest  Level Estimated
Sun 05:27:00 PM 36.4706 -13.0595 225° Southwest  Level Estimated
Sun 05:28:00 PM 36.3893 -13.1603 225° Southwest  Level Estimated
Sun 05:29:00 PM 36.3078 -13.2608 225° Southwest  Level Estimated
Sun 05:30:00 PM 36.2263 -13.3612 225° Southwest  Level Estimated
Sun 05:31:00 PM 36.1447 -13.4613 225° Southwest  Level Estimated
Sun 05:32:00 PM 36.0630 -13.5613 225° Southwest  Level Estimated
Sun 05:33:00 PM 35.9813 -13.6610 225° Southwest  Level Estimated
Sun 05:34:00 PM 35.8994 -13.7605 225° Southwest  Level Estimated
Sun 05:35:00 PM 35.8175 -13.8598 225° Southwest  Level Estimated
Sun 05:36:00 PM 35.7354 -13.9589 224° Southwest  Level Estimated
Sun 05:37:00 PM 35.6533 -14.0578 224° Southwest  Level Estimated
Sun 05:38:00 PM 35.5712 -14.1565 224° Southwest  Level Estimated
Sun 05:39:00 PM 35.4889 -14.2550 224° Southwest  Level Estimated
Sun 05:40:00 PM 35.4066 -14.3533 224° Southwest  Level Estimated
Sun 05:41:00 PM 35.3241 -14.4514 224° Southwest  Level Estimated
Sun 05:42:00 PM 35.2416 -14.5493 224° Southwest  Level Estimated
Sun 05:43:00 PM 35.1591 -14.6470 224° Southwest  Level Estimated
Sun 05:44:00 PM 35.0764 -14.7445 224° Southwest  Level Estimated
Sun 05:45:00 PM 34.9937 -14.8418 224° Southwest  Level Estimated
Sun 05:46:00 PM 34.9109 -14.9389 224° Southwest  Level Estimated
Sun 05:47:00 PM 34.8280 -15.0358 224° Southwest  Level Estimated
Sun 05:48:00 PM 34.7450 -15.1325 224° Southwest  Level Estimated
Sun 05:49:00 PM 34.6620 -15.2291 224° Southwest  Level Estimated
Sun 05:50:00 PM 34.5789 -15.3254 224° Southwest  Level Estimated
Sun 05:51:00 PM 34.4957 -15.4215 224° Southwest  Level Estimated
Sun 05:51:18 PM 33.5780 -15.6940 224° Southwest 481 554 31,000  Level FlightAware
Sun 05:51:58 PM 33.5080 -15.7610 219° Southwest 479 551 31,000  Level FlightAware
Sun 05:52:00 PM 34.4124 -15.5175 224° Southwest  Level Estimated
Sun 05:52:43 PM 33.4320 -15.8340 219° Southwest 478 550 31,000  Level FlightAware
Sun 05:53:23 PM 33.3610 -15.9010 218° Southwest 476 548 31,000  Level FlightAware
Sun 05:54:03 PM 33.2910 -15.9680 219° Southwest 476 548 31,000  Level FlightAware
Sun 05:54:48 PM 33.2160 -16.0390 218° Southwest 476 548 31,000  Level FlightAware
Sun 05:55:28 PM 33.1470 -16.1050 219° Southwest 476 548 31,000  Level FlightAware
Sun 05:56:13 PM 33.0710 -16.1760 218° Southwest 473 544 31,000  Level FlightAware
Sun 05:56:53 PM 32.9990 -16.2440 218° Southwest 473 544 31,000  Level FlightAware
Sun 05:57:33 PM 32.9300 -16.3080 218° Southwest 474 545 31,000  Level FlightAware
Sun 05:58:18 PM 32.8540 -16.3800 219° Southwest 474 545 31,000  Level FlightAware
Sun 05:58:58 PM 32.7860 -16.4440 218° Southwest 474 545 31,000  Level FlightAware
Sun 05:59:43 PM 32.7060 -16.5180 218° Southwest 475 547 31,000  Level FlightAware
Sun 06:00:23 PM 32.6360 -16.5830 218° Southwest 477 549 31,000  Level FlightAware
Sun 06:00:53 PM 32.5860 -16.6290 218° Southwest 476 548 31,000  Level FlightAware
Sun 06:01:33 PM 32.5150 -16.6950 218° Southwest 477 549 31,000  Level FlightAware
Sun 06:02:18 PM 32.4370 -16.7670 218° Southwest 479 551 31,000  Level FlightAware
Sun 06:02:58 PM 32.3670 -16.8320 218° Southwest 478 550 31,000  Level FlightAware
Sun 06:03:38 PM 32.2980 -16.8960 218° Southwest 480 552 31,000  Level FlightAware
Sun 06:04:23 PM 32.2160 -16.9710 218° Southwest 480 552 31,000  Level FlightAware
Sun 06:05:03 PM 32.1500 -17.0320 218° Southwest 480 552 31,000  Level FlightAware
Sun 06:05:48 PM 32.0690 -17.1060 218° Southwest 478 550 31,000  Level FlightAware
Sun 06:06:23 PM 32.0130 -17.1560 217° Southwest 478 550 31,000  Level FlightAware
Sun 06:07:13 PM 31.9380 -17.2230 217° Southwest 478 550 31,000  Level FlightAware
Sun 06:07:53 PM 31.8780 -17.2760 217° Southwest 478 550 31,000  Level FlightAware
Sun 06:08:33 PM 31.8180 -17.3290 217° Southwest 478 550 31,000  Level FlightAware
Sun 06:09:13 PM 31.7580 -17.3830 217° Southwest 478 550 31,000  Level FlightAware
Sun 06:09:53 PM 31.6980 -17.4360 217° Southwest 478 550 31,000  Level FlightAware
Sun 06:10:43 PM 31.6220 -17.5020 216° Southwest 478 550 31,000  Level FlightAware
Sun 06:11:23 PM 31.5620 -17.5550 217° Southwest 478 550 31,000  Level FlightAware
Sun 06:12:03 PM 31.5020 -17.6080 217° Southwest 478 550 31,000  Level FlightAware
Sun 06:12:38 PM 31.3350 -17.7250 211° Southwest 479 551 31,000  Level FlightAware
Sun 06:13:23 PM 31.2530 -17.7880 213° Southwest 478 550 31,000  Level FlightAware
Sun 06:14:13 PM 31.1580 -17.8610 213° Southwest 477 549 31,000  Level FlightAware
Sun 06:14:53 PM 31.0800 -17.9200 213° Southwest 475 547 31,000  Level FlightAware
Sun 06:15:48 PM 30.9810 -17.9960 213° Southwest 474 545 31,000  Level FlightAware
Sun 06:16:33 PM 30.9010 -18.0570 213° Southwest 473 544 31,000  Level FlightAware
Sun 06:17:13 PM 30.8340 -18.1070 213° Southwest 474 545 31,000  Level FlightAware
Sun 06:17:58 PM 30.7430 -18.1760 213° Southwest 474 545 31,000  Level FlightAware
Sun 06:18:38 PM 30.6700 -18.2310 213° Southwest 474 545 31,000  Level FlightAware
Sun 06:19:18 PM 30.5950 -18.2880 213° Southwest 476 548 31,000  Level FlightAware
Sun 06:20:03 PM 30.5120 -18.3510 213° Southwest 478 550 31,000  Level FlightAware
Sun 06:20:43 PM 30.4370 -18.4060 212° Southwest 474 545 31,000  Level FlightAware
Sun 06:21:28 PM 30.3620 -18.4620 213° Southwest 475 547 31,000  Level FlightAware
Sun 06:22:08 PM 30.2790 -18.5250 213° Southwest 475 547 31,000  Level FlightAware
Sun 06:22:48 PM 30.2090 -18.5770 213° Southwest 474 545 31,000  Level FlightAware
Sun 06:23:33 PM 30.1250 -18.6400 213° Southwest 473 544 31,000  Level FlightAware
Sun 06:24:13 PM 30.0510 -18.6950 213° Southwest 473 544 31,000  Level FlightAware
Sun 06:24:58 PM 29.9650 -18.7580 212° Southwest 473 544 31,000  Level FlightAware
Sun 06:25:33 PM 29.9090 -18.7990 212° Southwest 473 544 31,000  Level FlightAware
Sun 06:26:13 PM 29.8460 -18.8440 212° Southwest 473 544 31,000  Level FlightAware
Sun 06:27:03 PM 29.7670 -18.9010 212° Southwest 473 544 31,000  Level FlightAware
Sun 06:27:43 PM 29.7040 -18.9470 212° Southwest 473 544 31,000  Level FlightAware
Sun 06:28:23 PM 29.6410 -18.9920 212° Southwest 473 544 31,000  Level FlightAware
Sun 06:29:03 PM 29.5780 -19.0370 212° Southwest 473 544 31,000  Level FlightAware
Sun 06:29:48 PM 29.4380 -19.1470 214° Southwest 465 535 31,000  Level FlightAware
Sun 06:30:33 PM 29.3620 -19.2010 212° Southwest 465 535 31,000  Level FlightAware
Sun 06:31:13 PM 29.3000 -19.2460 212° Southwest 465 535 31,000  Level FlightAware
Sun 06:31:53 PM 29.2380 -19.2900 212° Southwest 465 535 31,000  Level FlightAware
Sun 06:32:33 PM 29.1760 -19.3350 212° Southwest 465 535 31,000  Level FlightAware
Sun 06:33:13 PM 29.1140 -19.3790 212° Southwest 465 535 31,000  Level FlightAware
Sun 06:33:53 PM 29.0520 -19.4230 212° Southwest 465 535 31,000  Level FlightAware
Sun 06:34:43 PM 28.9750 -19.4790 212° Southwest 465 535 31,000  Level FlightAware
Sun 06:35:23 PM 28.9130 -19.5230 212° Southwest 465 535 31,000  Level FlightAware
Sun 06:36:03 PM 28.8500 -19.5670 211° Southwest 465 535 31,000  Level FlightAware
Sun 06:36:43 PM 28.7880 -19.6120 212° Southwest 465 535 31,000  Level FlightAware
Sun 06:37:33 PM 28.7110 -19.6670 212° Southwest 465 535 31,000  Level FlightAware
Sun 06:38:13 PM 28.6490 -19.7110 212° Southwest 465 535 31,000  Level FlightAware
Sun 06:38:53 PM 28.5870 -19.7550 212° Southwest 465 535 31,000  Level FlightAware
Sun 06:39:33 PM 28.5250 -19.7990 212° Southwest 465 535 31,000 12 Level FlightAware
Sun 06:42:00 PM 28.3139 -20.0106 221° Southwest  Level Estimated
Sun 06:43:00 PM 28.2277 -20.0967 221° Southwest  Level Estimated
Sun 06:44:00 PM 28.1414 -20.1827 221° Southwest  Level Estimated
Sun 06:45:00 PM 28.0550 -20.2685 221° Southwest  Level Estimated
Sun 06:46:00 PM 27.9686 -20.3542 221° Southwest  Level Estimated
Sun 06:47:00 PM 27.8821 -20.4398 221° Southwest  Level Estimated
Sun 06:48:00 PM 27.7956 -20.5252 221° Southwest  Level Estimated
Sun 06:49:00 PM 27.7090 -20.6105 221° Southwest  Level Estimated
Sun 06:50:00 PM 27.6224 -20.6957 221° Southwest  Level Estimated
Sun 06:51:00 PM 27.5358 -20.7807 221° Southwest  Level Estimated
Sun 06:52:00 PM 27.4490 -20.8656 221° Southwest  Level Estimated
Sun 06:53:00 PM 27.3623 -20.9504 221° Southwest  Level Estimated
Sun 06:54:00 PM 27.2754 -21.0350 221° Southwest  Level Estimated
Sun 06:55:00 PM 27.1886 -21.1195 221° Southwest  Level Estimated
Sun 06:56:00 PM 27.1016 -21.2039 221° Southwest  Level Estimated
Sun 06:57:00 PM 27.0146 -21.2881 221° Southwest  Level Estimated
Sun 06:58:00 PM 26.9276 -21.3722 221° Southwest  Level Estimated
Sun 06:59:00 PM 26.8405 -21.4562 221° Southwest  Level Estimated
Sun 07:00:00 PM 26.7534 -21.5400 221° Southwest  Level Estimated
Sun 07:01:00 PM 26.6662 -21.6237 221° Southwest  Level Estimated
Sun 07:02:00 PM 26.5790 -21.7073 221° Southwest  Level Estimated
Sun 07:03:00 PM 26.4917 -21.7908 221° Southwest  Level Estimated
Sun 07:04:00 PM 26.4044 -21.8741 221° Southwest  Level Estimated
Sun 07:05:00 PM 26.3170 -21.9573 220° Southwest  Level Estimated
Sun 07:06:00 PM 26.2296 -22.0404 220° Southwest  Level Estimated
Sun 07:07:00 PM 26.1421 -22.1233 220° Southwest  Level Estimated
Sun 07:08:00 PM 26.0546 -22.2062 220° Southwest  Level Estimated
Sun 07:09:00 PM 25.9671 -22.2889 220° Southwest  Level Estimated
Sun 07:10:00 PM 25.8795 -22.3715 220° Southwest  Level Estimated
Sun 07:11:00 PM 25.7918 -22.4539 220° Southwest  Level Estimated
Sun 07:12:00 PM 25.7041 -22.5363 220° Southwest  Level Estimated
Sun 07:13:00 PM 25.6164 -22.6185 220° Southwest  Level Estimated
Sun 07:14:00 PM 25.5286 -22.7006 220° Southwest  Level Estimated
Sun 07:15:00 PM 25.4407 -22.7826 220° Southwest  Level Estimated
Sun 07:16:00 PM 25.3528 -22.8644 220° Southwest  Level Estimated
Sun 07:17:00 PM 25.2649 -22.9462 220° Southwest  Level Estimated
Sun 07:18:00 PM 25.1769 -23.0278 220° Southwest  Level Estimated
Sun 07:19:00 PM 25.0889 -23.1093 220° Southwest  Level Estimated
Sun 07:20:00 PM 25.0009 -23.1907 220° Southwest  Level Estimated
Sun 07:21:00 PM 24.9128 -23.2719 220° Southwest  Level Estimated
Sun 07:22:00 PM 24.8246 -23.3531 220° Southwest  Level Estimated
Sun 07:23:00 PM 24.7364 -23.4341 220° Southwest  Level Estimated
Sun 07:24:00 PM 24.6482 -23.5151 220° Southwest  Level Estimated
Sun 07:25:00 PM 24.5599 -23.5959 220° Southwest  Level Estimated
Sun 07:26:00 PM 24.4715 -23.6765 220° Southwest  Level Estimated
Sun 07:27:00 PM 24.3832 -23.7571 220° Southwest  Level Estimated
Sun 07:28:00 PM 24.2948 -23.8376 220° Southwest  Level Estimated
Sun 07:29:00 PM 24.2063 -23.9180 220° Southwest  Level Estimated
Sun 07:30:00 PM 24.1178 -23.9982 220° Southwest  Level Estimated
Sun 07:31:00 PM 24.0293 -24.0783 220° Southwest  Level Estimated
Sun 07:32:00 PM 23.9407 -24.1584 220° Southwest  Level Estimated
Sun 07:33:00 PM 23.8521 -24.2383 220° Southwest  Level Estimated
Sun 07:34:00 PM 23.7634 -24.3181 219° Southwest  Level Estimated
Sun 07:35:00 PM 23.6747 -24.3978 219° Southwest  Level Estimated
Sun 07:36:00 PM 23.5860 -24.4774 219° Southwest  Level Estimated
Sun 07:37:00 PM 23.4972 -24.5569 219° Southwest  Level Estimated
Sun 07:38:00 PM 23.4084 -24.6362 219° Southwest  Level Estimated
Sun 07:39:00 PM 23.3195 -24.7155 219° Southwest  Level Estimated
Sun 07:40:00 PM 23.2306 -24.7946 219° Southwest  Level Estimated
Sun 07:41:00 PM 23.1417 -24.8737 219° Southwest  Level Estimated
Sun 07:42:00 PM 23.0527 -24.9527 219° Southwest  Level Estimated
Sun 07:43:00 PM 22.9637 -25.0315 219° Southwest  Level Estimated
Sun 07:44:00 PM 22.8746 -25.1103 219° Southwest  Level Estimated
Sun 07:45:00 PM 22.7855 -25.1889 219° Southwest  Level Estimated
Sun 07:46:00 PM 22.6964 -25.2674 219° Southwest  Level Estimated
Sun 07:47:00 PM 22.6072 -25.3459 219° Southwest  Level Estimated
Sun 07:48:00 PM 22.5180 -25.4242 219° Southwest  Level Estimated
Sun 07:49:00 PM 22.4287 -25.5024 219° Southwest  Level Estimated
Sun 07:50:00 PM 22.3395 -25.5805 219° Southwest  Level Estimated
Sun 07:51:00 PM 22.2501 -25.6586 219° Southwest  Level Estimated
Sun 07:52:00 PM 22.1608 -25.7365 219° Southwest  Level Estimated
Sun 07:53:00 PM 22.0714 -25.8143 219° Southwest  Level Estimated
Sun 07:54:00 PM 21.9819 -25.8921 219° Southwest  Level Estimated
Sun 07:55:00 PM 21.8925 -25.9697 219° Southwest  Level Estimated
Sun 07:56:00 PM 21.8029 -26.0473 219° Southwest  Level Estimated
Sun 07:57:00 PM 21.7134 -26.1247 219° Southwest  Level Estimated
Sun 07:58:00 PM 21.6238 -26.2020 219° Southwest  Level Estimated
Sun 07:59:00 PM 21.5342 -26.2793 219° Southwest  Level Estimated
Sun 08:00:00 PM 21.4445 -26.3564 219° Southwest  Level Estimated
Sun 08:01:00 PM 21.3549 -26.4335 219° Southwest  Level Estimated
Sun 08:02:00 PM 21.2651 -26.5105 219° Southwest  Level Estimated
Sun 08:03:00 PM 21.1754 -26.5874 219° Southwest  Level Estimated
Sun 08:04:00 PM 21.0856 -26.6641 219° Southwest  Level Estimated
Sun 08:05:00 PM 20.9958 -26.7408 219° Southwest  Level Estimated
Sun 08:06:00 PM 20.9059 -26.8174 219° Southwest  Level Estimated
Sun 08:07:00 PM 20.8160 -26.8939 219° Southwest  Level Estimated
Sun 08:08:00 PM 20.7261 -26.9703 218° Southwest  Level Estimated
Sun 08:09:00 PM 20.6361 -27.0466 218° Southwest  Level Estimated
Sun 08:10:00 PM 20.5461 -27.1229 218° Southwest  Level Estimated
Sun 08:11:00 PM 20.4561 -27.1990 218° Southwest  Level Estimated
Sun 08:12:00 PM 20.3660 -27.2751 218° Southwest  Level Estimated
Sun 08:13:00 PM 20.2759 -27.3510 218° Southwest  Level Estimated
Sun 08:14:00 PM 20.1858 -27.4269 218° Southwest  Level Estimated
Sun 08:15:00 PM 20.0956 -27.5027 218° Southwest  Level Estimated
Sun 08:16:00 PM 20.0054 -27.5784 218° Southwest  Level Estimated
Sun 08:17:00 PM 19.9152 -27.6540 218° Southwest  Level Estimated
Sun 08:18:00 PM 19.8249 -27.7295 218° Southwest  Level Estimated
Sun 08:19:00 PM 19.7346 -27.8050 218° Southwest  Level Estimated
Sun 08:20:00 PM 19.6443 -27.8803 218° Southwest  Level Estimated
Sun 08:21:00 PM 19.5540 -27.9556 218° Southwest  Level Estimated
Sun 08:22:00 PM 19.4636 -28.0308 218° Southwest  Level Estimated
Sun 08:23:00 PM 19.3732 -28.1059 218° Southwest  Level Estimated
Sun 08:24:00 PM 19.2827 -28.1809 218° Southwest  Level Estimated
Sun 08:25:00 PM 19.1922 -28.2558 218° Southwest  Level Estimated
Sun 08:26:00 PM 19.1017 -28.3307 218° Southwest  Level Estimated
Sun 08:27:00 PM 19.0112 -28.4055 218° Southwest  Level Estimated
Sun 08:28:00 PM 18.9206 -28.4802 218° Southwest  Level Estimated
Sun 08:29:00 PM 18.8300 -28.5548 218° Southwest  Level Estimated
Sun 08:30:00 PM 18.7394 -28.6293 218° Southwest  Level Estimated
Sun 08:31:00 PM 18.6487 -28.7037 218° Southwest  Level Estimated
Sun 08:32:00 PM 18.5580 -28.7781 218° Southwest  Level Estimated
Sun 08:33:00 PM 18.4673 -28.8524 218° Southwest  Level Estimated
Sun 08:34:00 PM 18.3766 -28.9266 218° Southwest  Level Estimated
Sun 08:35:00 PM 18.2858 -29.0007 218° Southwest  Level Estimated
Sun 08:36:00 PM 18.1950 -29.0748 218° Southwest  Level Estimated
Sun 08:37:00 PM 18.1042 -29.1488 218° Southwest  Level Estimated
Sun 08:38:00 PM 18.0133 -29.2227 218° Southwest  Level Estimated
Sun 08:39:00 PM 17.9224 -29.2965 218° Southwest  Level Estimated
Sun 08:40:00 PM 17.8315 -29.3703 218° Southwest  Level Estimated
Sun 08:41:00 PM 17.7406 -29.4439 218° Southwest  Level Estimated
Sun 08:42:00 PM 17.6496 -29.5175 218° Southwest  Level Estimated
Sun 08:43:00 PM 17.5586 -29.5911 218° Southwest  Level Estimated
Sun 08:44:00 PM 17.4676 -29.6645 218° Southwest  Level Estimated
Sun 08:45:00 PM 17.3765 -29.7379 218° Southwest  Level Estimated
Sun 08:46:00 PM 17.2855 -29.8112 218° Southwest  Level Estimated
Sun 08:47:00 PM 17.1944 -29.8844 218° Southwest  Level Estimated
Sun 08:48:00 PM 17.1032 -29.9576 218° Southwest  Level Estimated
Sun 08:49:00 PM 17.0121 -30.0307 217° Southwest  Level Estimated
Sun 08:50:00 PM 16.9209 -30.1037 217° Southwest  Level Estimated
Sun 08:51:00 PM 16.8297 -30.1767 217° Southwest  Level Estimated
Sun 08:52:00 PM 16.7384 -30.2495 217° Southwest  Level Estimated
Sun 08:53:00 PM 16.6472 -30.3223 217° Southwest  Level Estimated
Sun 08:54:00 PM 16.5559 -30.3951 217° Southwest  Level Estimated
Sun 08:55:00 PM 16.4646 -30.4678 217° Southwest  Level Estimated
Sun 08:56:00 PM 16.3733 -30.5404 217° Southwest  Level Estimated
Sun 08:57:00 PM 16.2819 -30.6129 217° Southwest  Level Estimated
Sun 08:58:00 PM 16.1905 -30.6854 217° Southwest  Level Estimated
Sun 08:59:00 PM 16.0991 -30.7578 217° Southwest  Level Estimated
Sun 09:00:00 PM 16.0077 -30.8301 217° Southwest  Level Estimated
Sun 09:01:00 PM 15.9162 -30.9024 217° Southwest  Level Estimated
Sun 09:02:00 PM 15.8247 -30.9746 217° Southwest  Level Estimated
Sun 09:03:00 PM 15.7332 -31.0467 217° Southwest  Level Estimated
Sun 09:04:00 PM 15.6417 -31.1188 217° Southwest  Level Estimated
Sun 09:05:00 PM 15.5501 -31.1908 217° Southwest  Level Estimated
Sun 09:06:00 PM 15.4586 -31.2627 217° Southwest  Level Estimated
Sun 09:07:00 PM 15.3670 -31.3346 217° Southwest  Level Estimated
Sun 09:08:00 PM 15.2753 -31.4064 217° Southwest  Level Estimated
Sun 09:09:00 PM 15.1837 -31.4782 217° Southwest  Level Estimated
Sun 09:10:00 PM 15.0920 -31.5499 217° Southwest  Level Estimated
Sun 09:11:00 PM 15.0003 -31.6215 217° Southwest  Level Estimated
Sun 09:12:00 PM 14.9086 -31.6931 217° Southwest  Level Estimated
Sun 09:13:00 PM 14.8169 -31.7646 217° Southwest  Level Estimated
Sun 09:14:00 PM 14.7251 -31.8360 217° Southwest  Level Estimated
Sun 09:15:00 PM 14.6334 -31.9074 217° Southwest  Level Estimated
Sun 09:16:00 PM 14.5416 -31.9787 217° Southwest  Level Estimated
Sun 09:17:00 PM 14.4497 -32.0500 217° Southwest  Level Estimated
Sun 09:18:00 PM 14.3579 -32.1212 217° Southwest  Level Estimated
Sun 09:19:00 PM 14.2660 -32.1924 217° Southwest  Level Estimated
Sun 09:20:00 PM 14.1742 -32.2635 217° Southwest  Level Estimated
Sun 09:21:00 PM 14.0822 -32.3345 217° Southwest  Level Estimated
Sun 09:22:00 PM 13.9903 -32.4055 217° Southwest  Level Estimated
Sun 09:23:00 PM 13.8984 -32.4764 217° Southwest  Level Estimated
Sun 09:24:00 PM 13.8064 -32.5472 217° Southwest  Level Estimated
Sun 09:25:00 PM 13.7144 -32.6181 217° Southwest  Level Estimated
Sun 09:26:00 PM 13.6224 -32.6888 217° Southwest  Level Estimated
Sun 09:27:00 PM 13.5304 -32.7595 217° Southwest  Level Estimated
Sun 09:28:00 PM 13.4383 -32.8302 217° Southwest  Level Estimated
Sun 09:29:00 PM 13.3462 -32.9007 217° Southwest  Level Estimated
Sun 09:30:00 PM 13.2542 -32.9713 217° Southwest  Level Estimated
Sun 09:31:00 PM 13.1620 -33.0418 217° Southwest  Level Estimated
Sun 09:32:00 PM 13.0699 -33.1122 217° Southwest  Level Estimated
Sun 09:33:00 PM 12.9778 -33.1826 217° Southwest  Level Estimated
Sun 09:34:00 PM 12.8856 -33.2529 217° Southwest  Level Estimated
Sun 09:35:00 PM 12.7934 -33.3232 217° Southwest  Level Estimated
Sun 09:36:00 PM 12.7012 -33.3934 217° Southwest  Level Estimated
Sun 09:37:00 PM 12.6090 -33.4635 217° Southwest  Level Estimated
Sun 09:38:00 PM 12.5168 -33.5337 217° Southwest  Level Estimated
Sun 09:39:00 PM 12.4245 -33.6037 217° Southwest  Level Estimated
Sun 09:40:00 PM 12.3322 -33.6738 217° Southwest  Level Estimated
Sun 09:41:00 PM 12.2399 -33.7437 217° Southwest  Level Estimated
Sun 09:42:00 PM 12.1476 -33.8136 217° Southwest  Level Estimated
Sun 09:43:00 PM 12.0553 -33.8835 217° Southwest  Level Estimated
Sun 09:44:00 PM 11.9629 -33.9533 216° Southwest  Level Estimated
Sun 09:45:00 PM 11.8706 -34.0231 216° Southwest  Level Estimated
Sun 09:46:00 PM 11.7782 -34.0928 216° Southwest  Level Estimated
Sun 09:47:00 PM 11.6858 -34.1625 216° Southwest  Level Estimated
Sun 09:48:00 PM 11.5934 -34.2322 216° Southwest  Level Estimated
Sun 09:49:00 PM 11.5010 -34.3018 216° Southwest  Level Estimated
Sun 09:50:00 PM 11.4085 -34.3713 216° Southwest  Level Estimated
Sun 09:51:00 PM 11.3161 -34.4408 216° Southwest  Level Estimated
Sun 09:52:00 PM 11.2236 -34.5102 216° Southwest  Level Estimated
Sun 09:53:00 PM 11.1311 -34.5797 216° Southwest  Level Estimated
Sun 09:54:00 PM 11.0386 -34.6490 216° Southwest  Level Estimated
Sun 09:55:00 PM 10.9460 -34.7183 216° Southwest  Level Estimated
Sun 09:56:00 PM 10.8535 -34.7876 216° Southwest  Level Estimated
Sun 09:57:00 PM 10.7609 -34.8569 216° Southwest  Level Estimated
Sun 09:58:00 PM 10.6684 -34.9260 216° Southwest  Level Estimated
Sun 09:59:00 PM 10.5758 -34.9952 216° Southwest  Level Estimated
Sun 10:00:00 PM 10.4832 -35.0643 216° Southwest  Level Estimated
Sun 10:01:00 PM 10.3906 -35.1334 216° Southwest  Level Estimated
Sun 10:02:00 PM 10.2979 -35.2024 216° Southwest  Level Estimated
Sun 10:03:00 PM 10.2053 -35.2714 216° Southwest  Level Estimated
Sun 10:04:00 PM 10.1126 -35.3404 216° Southwest  Level Estimated
Sun 10:05:00 PM 10.0199 -35.4093 216° Southwest  Level Estimated
Sun 10:06:00 PM 9.9272 -35.4781 216° Southwest  Level Estimated
Sun 10:07:00 PM 9.8345 -35.5470 216° Southwest  Level Estimated
Sun 10:08:00 PM 9.7418 -35.6157 216° Southwest  Level Estimated
Sun 10:09:00 PM 9.6491 -35.6845 216° Southwest  Level Estimated
Sun 10:10:00 PM 9.5563 -35.7532 216° Southwest  Level Estimated
Sun 10:11:00 PM 9.4636 -35.8219 216° Southwest  Level Estimated
Sun 10:12:00 PM 9.3708 -35.8905 216° Southwest  Level Estimated
Sun 10:13:00 PM 9.2780 -35.9591 216° Southwest  Level Estimated
Sun 10:14:00 PM 9.1852 -36.0277 216° Southwest  Level Estimated
Sun 10:15:00 PM 9.0924 -36.0962 216° Southwest  Level Estimated
Sun 10:16:00 PM 8.9996 -36.1647 216° Southwest  Level Estimated
Sun 10:17:00 PM 8.9068 -36.2332 216° Southwest  Level Estimated
Sun 10:18:00 PM 8.8139 -36.3016 216° Southwest  Level Estimated
Sun 10:19:00 PM 8.7211 -36.3700 216° Southwest  Level Estimated
Sun 10:20:00 PM 8.6282 -36.4384 216° Southwest  Level Estimated
Sun 10:21:00 PM 8.5353 -36.5067 216° Southwest  Level Estimated
Sun 10:22:00 PM 8.4424 -36.5750 216° Southwest  Level Estimated
Sun 10:23:00 PM 8.3495 -36.6432 216° Southwest  Level Estimated
Sun 10:24:00 PM 8.2566 -36.7114 216° Southwest  Level Estimated
Sun 10:25:00 PM 8.1636 -36.7796 216° Southwest  Level Estimated
Sun 10:26:00 PM 8.0707 -36.8478 216° Southwest  Level Estimated
Sun 10:27:00 PM 7.9777 -36.9159 216° Southwest  Level Estimated
Sun 10:28:00 PM 7.8847 -36.9840 216° Southwest  Level Estimated
Sun 10:29:00 PM 7.7918 -37.0521 216° Southwest  Level Estimated
Sun 10:30:00 PM 7.6988 -37.1201 216° Southwest  Level Estimated
Sun 10:31:00 PM 7.6058 -37.1881 216° Southwest  Level Estimated
Sun 10:32:00 PM 7.5128 -37.2561 216° Southwest  Level Estimated
Sun 10:33:00 PM 7.4198 -37.3241 216° Southwest  Level Estimated
Sun 10:34:00 PM 7.3267 -37.3920 216° Southwest  Level Estimated
Sun 10:35:00 PM 7.2337 -37.4599 216° Southwest  Level Estimated
Sun 10:36:00 PM 7.1406 -37.5277 216° Southwest  Level Estimated
Sun 10:37:00 PM 7.0476 -37.5956 216° Southwest  Level Estimated
Sun 10:38:00 PM 6.9545 -37.6634 216° Southwest  Level Estimated
Sun 10:39:00 PM 6.8614 -37.7312 216° Southwest  Level Estimated
Sun 10:40:00 PM 6.7683 -37.7989 216° Southwest  Level Estimated
Sun 10:41:00 PM 6.6752 -37.8667 216° Southwest  Level Estimated
Sun 10:42:00 PM 6.5821 -37.9344 216° Southwest  Level Estimated
Sun 10:43:00 PM 6.4890 -38.0020 216° Southwest  Level Estimated
Sun 10:44:00 PM 6.3959 -38.0697 216° Southwest  Level Estimated
Sun 10:45:00 PM 6.3027 -38.1373 216° Southwest  Level Estimated
Sun 10:46:00 PM 6.2096 -38.2049 216° Southwest  Level Estimated
Sun 10:47:00 PM 6.1164 -38.2725 216° Southwest  Level Estimated
Sun 10:48:00 PM 6.0233 -38.3401 216° Southwest  Level Estimated
Sun 10:49:00 PM 5.9301 -38.4076 216° Southwest  Level Estimated
Sun 10:50:00 PM 5.8369 -38.4751 216° Southwest  Level Estimated
Sun 10:51:00 PM 5.7437 -38.5426 216° Southwest  Level Estimated
Sun 10:52:00 PM 5.6505 -38.6101 216° Southwest  Level Estimated
Sun 10:53:00 PM 5.5574 -38.6775 216° Southwest  Level Estimated
Sun 10:54:00 PM 5.4641 -38.7449 216° Southwest  Level Estimated
Sun 10:55:00 PM 5.3709 -38.8123 216° Southwest  Level Estimated
Sun 10:56:00 PM 5.2777 -38.8797 216° Southwest  Level Estimated
Sun 10:57:00 PM 5.1845 -38.9471 216° Southwest  Level Estimated
Sun 10:58:00 PM 5.0912 -39.0144 216° Southwest  Level Estimated
Sun 10:59:00 PM 4.9980 -39.0817 216° Southwest  Level Estimated
Sun 10:59:03 PM -1.3500 -37.2620 216° Southwest 511 588 34,000  Level FlightAware
Sun 10:59:53 PM -1.4530 -37.3160 208° Southwest 510 587 34,000  Level FlightAware
Sun 11:00:33 PM -1.5240 -37.3540 208° Southwest 510 587 34,000  Level FlightAware
Sun 11:01:13 PM -1.6220 -37.4060 208° Southwest 507 583 34,000  Level FlightAware
Sun 11:01:53 PM -1.7070 -37.4510 208° Southwest 507 583 34,000  Level FlightAware
Sun 11:02:38 PM -1.7880 -37.4940 208° Southwest 507 583 34,000  Level FlightAware
Sun 11:03:23 PM -1.8950 -37.5510 208° Southwest 509 586 34,000  Level FlightAware
Sun 11:04:03 PM -1.9780 -37.5950 208° Southwest 509 586 34,000  Level FlightAware
Sun 11:04:43 PM -2.0620 -37.6390 208° Southwest 510 587 34,000  Level FlightAware
Sun 11:05:28 PM -2.1540 -37.6880 208° Southwest 510 587 34,000  Level FlightAware
Sun 11:06:03 PM -2.2290 -37.7280 208° Southwest 510 587 34,000  Level FlightAware
Sun 11:06:48 PM -2.3210 -37.7770 208° Southwest 512 589 34,000  Level FlightAware
Sun 11:07:33 PM -2.4190 -37.8290 208° Southwest 515 593 34,000  Level FlightAware
Sun 11:08:08 PM -2.4910 -37.8670 208° Southwest 514 592 34,000  Level FlightAware
Sun 11:08:58 PM -2.5970 -37.9230 208° Southwest 513 590 34,000  Level FlightAware
Sun 11:09:38 PM -2.6800 -37.9670 208° Southwest 511 588 34,000  Level FlightAware
Sun 11:10:23 PM -2.7770 -38.0190 208° Southwest 509 586 34,000  Level FlightAware
Sun 11:11:13 PM -2.8780 -38.0720 208° Southwest 506 582 34,000  Level FlightAware
Sun 11:11:58 PM -2.9710 -38.1220 208° Southwest 506 582 34,000  Level FlightAware
Sun 11:12:43 PM -3.0650 -38.1720 208° Southwest 507 583 34,000  Level FlightAware
Sun 11:13:23 PM -3.1500 -38.2170 208° Southwest 508 585 34,000  Level FlightAware
Sun 11:14:03 PM -3.2320 -38.2610 208° Southwest 508 585 34,000  Level FlightAware
Sun 11:14:48 PM -3.3250 -38.3100 208° Southwest 509 586 34,000  Level FlightAware
Sun 11:15:28 PM -3.4070 -38.3540 208° Southwest 511 588 34,000  Level FlightAware
Sun 11:16:13 PM -3.5060 -38.4060 208° Southwest 511 588 34,000  Level FlightAware
Sun 11:16:53 PM -3.5890 -38.4500 208° Southwest 510 587 34,000  Level FlightAware
Sun 11:17:28 PM -3.6600 -38.4880 208° Southwest 511 588 34,000  Level FlightAware
Sun 11:18:18 PM -3.7660 -38.5430 207° Southwest 510 587 34,000  Level FlightAware
Sun 11:18:58 PM -3.8500 -38.5830 205° Southwest 511 588 34,000  Level FlightAware
Sun 11:19:38 PM -3.9380 -38.6220 204° Southwest 511 588 34,000  Level FlightAware
Sun 11:20:23 PM -4.0370 -38.6660 204° Southwest 510 587 34,000  Level FlightAware
Sun 11:21:03 PM -4.1250 -38.7050 204° Southwest 510 587 34,000  Level FlightAware
Sun 11:21:48 PM -4.2180 -38.7470 204° Southwest 510 587 34,000  Level FlightAware
Sun 11:22:28 PM -4.3050 -38.7860 204° Southwest 510 587 34,000  Level FlightAware
Sun 11:23:13 PM -4.4060 -38.8310 204° Southwest 512 589 34,000  Level FlightAware
Sun 11:23:53 PM -4.4940 -38.8700 204° Southwest 514 592 34,000  Level FlightAware
Sun 11:24:33 PM -4.5810 -38.9090 204° Southwest 515 593 34,000  Level FlightAware
Sun 11:25:13 PM -4.6670 -38.9470 204° Southwest 514 592 34,000  Level FlightAware
Sun 11:25:58 PM -4.7610 -38.9890 204° Southwest 514 592 34,000  Level FlightAware
Sun 11:26:38 PM -4.8500 -39.0290 204° Southwest 515 593 34,000  Level FlightAware
Sun 11:27:33 PM -4.9670 -39.0820 204° Southwest 513 590 34,000  Level FlightAware
Sun 11:28:13 PM -5.0400 -39.1140 204° Southwest 513 590 34,000  Level FlightAware
Sun 11:28:53 PM -5.1140 -39.1470 204° Southwest 513 590 34,000  Level FlightAware
Sun 11:29:43 PM -5.2550 -39.2110 204° Southwest 512 589 34,000  Level FlightAware
Sun 11:30:18 PM -5.3220 -39.2410 204° Southwest 511 588 34,000  Level FlightAware
Sun 11:31:08 PM -5.4140 -39.2820 204° Southwest 511 588 34,000  Level FlightAware
Sun 11:31:48 PM -5.4870 -39.3150 204° Southwest 511 588 34,000  Level FlightAware
Sun 11:32:28 PM -5.5600 -39.3480 204° Southwest 511 588 34,000  Level FlightAware
Sun 11:33:08 PM -5.6340 -39.3810 204° Southwest 511 588 34,000  Level FlightAware
Sun 11:33:48 PM -5.7070 -39.4140 204° Southwest 511 588 34,000  Level FlightAware
Sun 11:34:38 PM -5.7990 -39.4550 204° Southwest 511 588 34,000  Level FlightAware
Sun 11:35:18 PM -5.8720 -39.4880 204° Southwest 511 588 34,000  Level FlightAware
Sun 11:35:58 PM -5.9460 -39.5200 203° Southwest 511 588 34,000  Level FlightAware
Sun 11:36:38 PM -6.0190 -39.5530 204° Southwest 511 588 34,000  Level FlightAware
Sun 11:37:18 PM -6.0930 -39.5860 204° Southwest 511 588 34,000  Level FlightAware
Sun 11:37:58 PM -6.1660 -39.6190 204° Southwest 511 588 34,000  Level FlightAware
Sun 11:38:48 PM -6.2580 -39.6600 204° Southwest 511 588 34,000  Level FlightAware
Sun 11:39:28 PM -6.3310 -39.6930 204° Southwest 511 588 34,000 -114 Level FlightAware
Sun 11:42:00 PM -6.5450 -39.8914 223° Southwest  Level Estimated
Sun 11:43:00 PM -6.6294 -39.9698 223° Southwest  Level Estimated
Sun 11:44:00 PM -6.7139 -40.0482 223° Southwest  Level Estimated
Sun 11:45:00 PM -6.7983 -40.1266 223° Southwest  Level Estimated
Sun 11:46:00 PM -6.8827 -40.2050 223° Southwest  Level Estimated
Sun 11:47:00 PM -6.9671 -40.2835 223° Southwest  Level Estimated
Sun 11:48:00 PM -7.0515 -40.3620 223° Southwest  Level Estimated
Sun 11:49:00 PM -7.1359 -40.4405 223° Southwest  Level Estimated
Sun 11:50:00 PM -7.2202 -40.5191 223° Southwest  Level Estimated
Sun 11:51:00 PM -7.3046 -40.5977 223° Southwest  Level Estimated
Sun 11:52:00 PM -7.3889 -40.6763 223° Southwest  Level Estimated
Sun 11:53:00 PM -7.4732 -40.7550 223° Southwest  Level Estimated
Sun 11:54:00 PM -7.5575 -40.8336 223° Southwest  Level Estimated
Sun 11:55:00 PM -7.6418 -40.9123 223° Southwest  Level Estimated
Sun 11:56:00 PM -7.7261 -40.9911 223° Southwest  Level Estimated
Sun 11:57:00 PM -7.8104 -41.0699 223° Southwest  Level Estimated
Sun 11:58:00 PM -7.8946 -41.1487 223° Southwest  Level Estimated
Sun 11:59:00 PM -7.9789 -41.2275 223° Southwest  Level Estimated
Mon 12:00:00 AM -8.0631 -41.3064 223° Southwest  Level Estimated
Mon 12:01:00 AM -8.1473 -41.3853 223° Southwest  Level Estimated
Mon 12:02:00 AM -8.2315 -41.4642 223° Southwest  Level Estimated
Mon 12:03:00 AM -8.3156 -41.5432 223° Southwest  Level Estimated
Mon 12:04:00 AM -8.3998 -41.6222 223° Southwest  Level Estimated
Mon 12:05:00 AM -8.4839 -41.7012 223° Southwest  Level Estimated
Mon 12:06:00 AM -8.5681 -41.7803 223° Southwest  Level Estimated
Mon 12:07:00 AM -8.6522 -41.8594 223° Southwest  Level Estimated
Mon 12:08:00 AM -8.7363 -41.9385 223° Southwest  Level Estimated
Mon 12:09:00 AM -8.8203 -42.0177 223° Southwest  Level Estimated
Mon 12:10:00 AM -8.9044 -42.0969 223° Southwest  Level Estimated
Mon 12:11:00 AM -8.9885 -42.1762 223° Southwest  Level Estimated
Mon 12:12:00 AM -9.0725 -42.2555 223° Southwest  Level Estimated
Mon 12:13:00 AM -9.1565 -42.3348 223° Southwest  Level Estimated
Mon 12:14:00 AM -9.2405 -42.4141 223° Southwest  Level Estimated
Mon 12:15:00 AM -9.3244 -42.4935 223° Southwest  Level Estimated
Mon 12:16:00 AM -9.4084 -42.5730 223° Southwest  Level Estimated
Mon 12:17:00 AM -9.4923 -42.6525 223° Southwest  Level Estimated
Mon 12:18:00 AM -9.5763 -42.7320 223° Southwest  Level Estimated
Mon 12:19:00 AM -9.6602 -42.8115 223° Southwest  Level Estimated
Mon 12:20:00 AM -9.7441 -42.8911 223° Southwest  Level Estimated
Mon 12:21:00 AM -9.8279 -42.9707 223° Southwest  Level Estimated
Mon 12:22:00 AM -9.9118 -43.0504 223° Southwest  Level Estimated
Mon 12:23:00 AM -9.9956 -43.1301 223° Southwest  Level Estimated
Mon 12:24:00 AM -10.0794 -43.2099 223° Southwest  Level Estimated
Mon 12:25:00 AM -10.1632 -43.2897 223° Southwest  Level Estimated
Mon 12:26:00 AM -10.2470 -43.3695 223° Southwest  Level Estimated
Mon 12:27:00 AM -10.3307 -43.4494 223° Southwest  Level Estimated
Mon 12:28:00 AM -10.4145 -43.5293 223° Southwest  Level Estimated
Mon 12:29:00 AM -10.4982 -43.6093 223° Southwest  Level Estimated
Mon 12:30:00 AM -10.5819 -43.6893 223° Southwest  Level Estimated
Mon 12:31:00 AM -10.6655 -43.7693 223° Southwest  Level Estimated
Mon 12:32:00 AM -10.7492 -43.8494 223° Southwest  Level Estimated
Mon 12:33:00 AM -10.8328 -43.9296 223° Southwest  Level Estimated
Mon 12:34:00 AM -10.9164 -44.0098 223° Southwest  Level Estimated
Mon 12:35:00 AM -11.0000 -44.0900 223° Southwest  Level Estimated
Mon 12:36:00 AM -11.0836 -44.1703 223° Southwest  Level Estimated
Mon 12:37:00 AM -11.1671 -44.2506 223° Southwest  Level Estimated
Mon 12:38:00 AM -11.2507 -44.3310 223° Southwest  Level Estimated
Mon 12:39:00 AM -11.3342 -44.4114 223° Southwest  Level Estimated
Mon 12:40:00 AM -11.4176 -44.4919 223° Southwest  Level Estimated
Mon 12:41:00 AM -11.5011 -44.5724 223° Southwest  Level Estimated
Mon 12:42:00 AM -11.5845 -44.6529 223° Southwest  Level Estimated
Mon 12:43:00 AM -11.6680 -44.7335 223° Southwest  Level Estimated
Mon 12:44:00 AM -11.7514 -44.8142 223° Southwest  Level Estimated
Mon 12:45:00 AM -11.8347 -44.8949 223° Southwest  Level Estimated
Mon 12:46:00 AM -11.9181 -44.9756 223° Southwest  Level Estimated
Mon 12:47:00 AM -12.0014 -45.0564 223° Southwest  Level Estimated
Mon 12:48:00 AM -12.0847 -45.1373 223° Southwest  Level Estimated
Mon 12:49:00 AM -12.1680 -45.2182 224° Southwest  Level Estimated
Mon 12:50:00 AM -12.2512 -45.2991 224° Southwest  Level Estimated
Mon 12:51:00 AM -12.3345 -45.3801 224° Southwest  Level Estimated
Mon 12:52:00 AM -12.4177 -45.4612 224° Southwest  Level Estimated
Mon 12:53:00 AM -12.5009 -45.5423 224° Southwest  Level Estimated
Mon 12:54:00 AM -12.5840 -45.6235 224° Southwest  Level Estimated
Mon 12:55:00 AM -12.6672 -45.7047 224° Southwest  Level Estimated
Mon 12:56:00 AM -12.7503 -45.7860 224° Southwest  Level Estimated
Mon 12:57:00 AM -12.8334 -45.8673 224° Southwest  Level Estimated
Mon 12:58:00 AM -12.9164 -45.9487 224° Southwest  Level Estimated
Mon 12:59:00 AM -12.9995 -46.0301 224° Southwest  Level Estimated
Mon 01:00:00 AM -13.0825 -46.1116 224° Southwest  Level Estimated
Mon 01:01:00 AM -13.1655 -46.1931 224° Southwest  Level Estimated
Mon 01:02:00 AM -13.2484 -46.2747 224° Southwest  Level Estimated
Mon 01:03:00 AM -13.3313 -46.3563 224° Southwest  Level Estimated
Mon 01:04:00 AM -13.4143 -46.4380 224° Southwest  Level Estimated
Mon 01:05:00 AM -13.4971 -46.5198 224° Southwest  Level Estimated
Mon 01:06:00 AM -13.5800 -46.6016 224° Southwest  Level Estimated
Mon 01:07:00 AM -13.6628 -46.6835 224° Southwest  Level Estimated
Mon 01:08:00 AM -13.7456 -46.7654 224° Southwest  Level Estimated
Mon 01:09:00 AM -13.8284 -46.8474 224° Southwest  Level Estimated
Mon 01:10:00 AM -13.9111 -46.9295 224° Southwest  Level Estimated
Mon 01:11:00 AM -13.9938 -47.0116 224° Southwest  Level Estimated
Mon 01:12:00 AM -14.0765 -47.0937 224° Southwest  Level Estimated
Mon 01:13:00 AM -14.1592 -47.1760 224° Southwest  Level Estimated
Mon 01:14:00 AM -14.2418 -47.2583 224° Southwest  Level Estimated
Mon 01:15:00 AM -14.3244 -47.3406 224° Southwest  Level Estimated
Mon 01:16:00 AM -14.4070 -47.4230 224° Southwest  Level Estimated
Mon 01:17:00 AM -14.4896 -47.5055 224° Southwest  Level Estimated
Mon 01:18:00 AM -14.5721 -47.5880 224° Southwest  Level Estimated
Mon 01:19:00 AM -14.6546 -47.6706 224° Southwest  Level Estimated
Mon 01:20:00 AM -14.7371 -47.7533 224° Southwest  Level Estimated
Mon 01:21:00 AM -14.8195 -47.8360 224° Southwest  Level Estimated
Mon 01:22:00 AM -14.9019 -47.9188 224° Southwest  Level Estimated
Mon 01:23:00 AM -14.9843 -48.0016 224° Southwest  Level Estimated
Mon 01:24:00 AM -15.0666 -48.0845 224° Southwest  Level Estimated
Mon 01:25:00 AM -15.1489 -48.1675 224° Southwest  Level Estimated
Mon 01:26:00 AM -15.2312 -48.2505 224° Southwest  Level Estimated
Mon 01:27:00 AM -15.3134 -48.3336 224° Southwest  Level Estimated
Mon 01:28:00 AM -15.3956 -48.4168 224° Southwest  Level Estimated
Mon 01:29:00 AM -15.4778 -48.5000 224° Southwest  Level Estimated
Mon 01:30:00 AM -15.5600 -48.5833 224° Southwest  Level Estimated
Mon 01:31:00 AM -15.6421 -48.6667 224° Southwest  Level Estimated
Mon 01:32:00 AM -15.7242 -48.7501 224° Southwest  Level Estimated
Mon 01:33:00 AM -15.8063 -48.8336 224° Southwest  Level Estimated
Mon 01:34:00 AM -15.8883 -48.9171 224° Southwest  Level Estimated
Mon 01:35:00 AM -15.9703 -49.0008 224° Southwest  Level Estimated
Mon 01:36:00 AM -16.0523 -49.0845 224° Southwest  Level Estimated
Mon 01:37:00 AM -16.1342 -49.1683 224° Southwest  Level Estimated
Mon 01:38:00 AM -16.2161 -49.2521 225° Southwest  Level Estimated
Mon 01:39:00 AM -16.2980 -49.3360 225° Southwest  Level Estimated
Mon 01:40:00 AM -16.3799 -49.4200 225° Southwest  Level Estimated
Mon 01:41:00 AM -16.4617 -49.5040 225° Southwest  Level Estimated
Mon 01:42:00 AM -16.5434 -49.5882 225° Southwest  Level Estimated
Mon 01:43:00 AM -16.6252 -49.6723 225° Southwest  Level Estimated
Mon 01:44:00 AM -16.7069 -49.7566 225° Southwest  Level Estimated
Mon 01:45:00 AM -16.7885 -49.8409 225° Southwest  Level Estimated
Mon 01:46:00 AM -16.8702 -49.9254 225° Southwest  Level Estimated
Mon 01:47:00 AM -16.9518 -50.0098 225° Southwest  Level Estimated
Mon 01:48:00 AM -17.0333 -50.0944 225° Southwest  Level Estimated
Mon 01:49:00 AM -17.1149 -50.1790 225° Southwest  Level Estimated
Mon 01:50:00 AM -17.1964 -50.2637 225° Southwest  Level Estimated
Mon 01:51:00 AM -17.2778 -50.3485 225° Southwest  Level Estimated
Mon 01:52:00 AM -17.3593 -50.4333 225° Southwest  Level Estimated
Mon 01:53:00 AM -17.4407 -50.5183 225° Southwest  Level Estimated
Mon 01:54:00 AM -17.5220 -50.6033 225° Southwest  Level Estimated
Mon 01:55:00 AM -17.6033 -50.6884 225° Southwest  Level Estimated
Mon 01:56:00 AM -17.6846 -50.7735 225° Southwest  Level Estimated
Mon 01:57:00 AM -17.7659 -50.8587 225° Southwest  Level Estimated
Mon 01:58:00 AM -17.8471 -50.9440 225° Southwest  Level Estimated
Mon 01:59:00 AM -17.9282 -51.0294 225° Southwest  Level Estimated
Mon 02:00:00 AM -18.0094 -51.1149 225° Southwest  Level Estimated
Mon 02:01:00 AM -18.0905 -51.2005 225° Southwest  Level Estimated
Mon 02:02:00 AM -18.1715 -51.2861 225° Southwest  Level Estimated
Mon 02:03:00 AM -18.2525 -51.3718 225° Southwest  Level Estimated
Mon 02:04:00 AM -18.3335 -51.4576 225° Southwest  Level Estimated
Mon 02:05:00 AM -18.4145 -51.5434 225° Southwest  Level Estimated
Mon 02:06:00 AM -18.4954 -51.6294 225° Southwest  Level Estimated
Mon 02:07:00 AM -18.5762 -51.7154 225° Southwest  Level Estimated
Mon 02:08:00 AM -18.6571 -51.8015 225° Southwest  Level Estimated
Mon 02:09:00 AM -18.7379 -51.8877 225° Southwest  Level Estimated
Mon 02:10:00 AM -18.8186 -51.9740 225° Southwest  Level Estimated
Mon 02:11:00 AM -18.8993 -52.0603 225° Southwest  Level Estimated
Mon 02:12:00 AM -18.9800 -52.1468 225° Southwest  Level Estimated
Mon 02:13:00 AM -19.0606 -52.2333 225° Southwest  Level Estimated
Mon 02:14:00 AM -19.1412 -52.3199 225° Southwest  Level Estimated
Mon 02:15:00 AM -19.2218 -52.4066 225° Southwest  Level Estimated
Mon 02:16:00 AM -19.3023 -52.4934 225° Southwest  Level Estimated
Mon 02:17:00 AM -19.3827 -52.5802 226° Southwest  Level Estimated
Mon 02:18:00 AM -19.4632 -52.6672 226° Southwest  Level Estimated
Mon 02:19:00 AM -19.5435 -52.7542 226° Southwest  Level Estimated
Mon 02:20:00 AM -19.6239 -52.8413 226° Southwest  Level Estimated
Mon 02:21:00 AM -19.7042 -52.9285 226° Southwest  Level Estimated
Mon 02:22:00 AM -19.7844 -53.0158 226° Southwest  Level Estimated
Mon 02:23:00 AM -19.8646 -53.1032 226° Southwest  Level Estimated
Mon 02:24:00 AM -19.9448 -53.1907 226° Southwest  Level Estimated
Mon 02:25:00 AM -20.0249 -53.2783 226° Southwest  Level Estimated
Mon 02:26:00 AM -20.1050 -53.3659 226° Southwest  Level Estimated
Mon 02:27:00 AM -20.1851 -53.4536 226° Southwest  Level Estimated
Mon 02:28:00 AM -20.2651 -53.5415 226° Southwest  Level Estimated
Mon 02:29:00 AM -20.3450 -53.6294 226° Southwest  Level Estimated
Mon 02:30:00 AM -20.4249 -53.7174 226° Southwest  Level Estimated
Mon 02:31:00 AM -20.5048 -53.8055 226° Southwest  Level Estimated
Mon 02:32:00 AM -20.5846 -53.8937 226° Southwest  Level Estimated
Mon 02:33:00 AM -20.6644 -53.9820 226° Southwest  Level Estimated
Mon 02:34:00 AM -20.7441 -54.0704 226° Southwest  Level Estimated
Mon 02:35:00 AM -20.8238 -54.1588 226° Southwest  Level Estimated
Mon 02:36:00 AM -20.9035 -54.2474 226° Southwest  Level Estimated
Mon 02:37:00 AM -20.9831 -54.3361 226° Southwest  Level Estimated
Mon 02:38:00 AM -21.0626 -54.4248 226° Southwest  Level Estimated
Mon 02:39:00 AM -21.1421 -54.5137 226° Southwest  Level Estimated
Mon 02:40:00 AM -21.2216 -54.6026 226° Southwest  Level Estimated
Mon 02:41:00 AM -21.3010 -54.6917 226° Southwest  Level Estimated
Mon 02:42:00 AM -21.3803 -54.7808 226° Southwest  Level Estimated
Mon 02:43:00 AM -21.4597 -54.8700 226° Southwest  Level Estimated
Mon 02:44:00 AM -21.5389 -54.9594 226° Southwest  Level Estimated
Mon 02:45:00 AM -21.6182 -55.0488 226° Southwest  Level Estimated
Mon 02:46:00 AM -21.6973 -55.1383 226° Southwest  Level Estimated
Mon 02:47:00 AM -21.7764 -55.2280 226° Southwest  Level Estimated
Mon 02:48:00 AM -21.8555 -55.3177 226° Southwest  Level Estimated
Mon 02:49:00 AM -21.9346 -55.4075 227° Southwest  Level Estimated
Mon 02:50:00 AM -22.0135 -55.4974 227° Southwest  Level Estimated
Mon 02:51:00 AM -22.0925 -55.5874 227° Southwest  Level Estimated
Mon 02:52:00 AM -22.1714 -55.6776 227° Southwest  Level Estimated
Mon 02:53:00 AM -22.2502 -55.7678 227° Southwest  Level Estimated
Mon 02:54:00 AM -22.3290 -55.8581 227° Southwest  Level Estimated
Mon 02:55:00 AM -22.4077 -55.9486 227° Southwest  Level Estimated
Mon 02:56:00 AM -22.4864 -56.0391 227° Southwest  Level Estimated
Mon 02:57:00 AM -22.5650 -56.1297 227° Southwest  Level Estimated
Mon 02:58:00 AM -22.6436 -56.2205 227° Southwest  Level Estimated
Mon 02:59:00 AM -22.7221 -56.3113 227° Southwest  Level Estimated
Mon 03:00:00 AM -22.8006 -56.4022 227° Southwest  Level Estimated
Mon 03:01:00 AM -22.8790 -56.4933 227° Southwest  Level Estimated
Mon 03:02:00 AM -22.9574 -56.5845 227° Southwest  Level Estimated
Mon 03:03:00 AM -23.0357 -56.6757 227° Southwest  Level Estimated
Mon 03:04:00 AM -23.1140 -56.7671 227° Southwest  Level Estimated
Mon 03:05:00 AM -23.1922 -56.8586 227° Southwest  Level Estimated
Mon 03:06:00 AM -23.2704 -56.9501 227° Southwest  Level Estimated
Mon 03:07:00 AM -23.3485 -57.0418 227° Southwest  Level Estimated
Mon 03:08:00 AM -23.4265 -57.1336 227° Southwest  Level Estimated
Mon 03:09:00 AM -23.5045 -57.2255 227° Southwest  Level Estimated
Mon 03:10:00 AM -23.5825 -57.3176 227° Southwest  Level Estimated
Mon 03:11:00 AM -23.6604 -57.4097 227° Southwest  Level Estimated
Mon 03:12:00 AM -23.7382 -57.5019 227° Southwest  Level Estimated
Mon 03:13:00 AM -23.8160 -57.5942 227° Southwest  Level Estimated
Mon 03:14:00 AM -23.8937 -57.6867 227° Southwest  Level Estimated
Mon 03:15:00 AM -23.9714 -57.7793 227° Southwest  Level Estimated
Mon 03:16:00 AM -24.0490 -57.8719 227° Southwest  Level Estimated
Mon 03:17:00 AM -24.1266 -57.9647 228° Southwest  Level Estimated
Mon 03:18:00 AM -24.2041 -58.0576 228° Southwest  Level Estimated
Mon 03:19:00 AM -24.2816 -58.1507 228° Southwest  Level Estimated
Mon 03:20:00 AM -24.3590 -58.2438 228° Southwest  Level Estimated
Mon 03:21:00 AM -24.4363 -58.3370 228° Southwest  Level Estimated
Mon 03:22:00 AM -24.5136 -58.4304 228° Southwest  Level Estimated
Mon 03:23:00 AM -24.5908 -58.5238 228° Southwest  Level Estimated
Mon 03:24:00 AM -24.6680 -58.6174 228° Southwest  Level Estimated
Mon 03:25:00 AM -24.7451 -58.7111 228° Southwest  Level Estimated
Mon 03:26:00 AM -24.8221 -58.8050 228° Southwest  Level Estimated
Mon 03:27:00 AM -24.8991 -58.8989 228° Southwest  Level Estimated
Mon 03:28:00 AM -24.9760 -58.9930 228° Southwest  Level Estimated
Mon 03:29:00 AM -25.0529 -59.0871 228° Southwest  Level Estimated
Mon 03:30:00 AM -25.1297 -59.1814 228° Southwest  Level Estimated
Mon 03:31:00 AM -25.2065 -59.2758 228° Southwest  Level Estimated
Mon 03:32:00 AM -25.2832 -59.3703 228° Southwest  Level Estimated
Mon 03:33:00 AM -25.3598 -59.4650 228° Southwest  Level Estimated
Mon 03:34:00 AM -25.4364 -59.5598 228° Southwest  Level Estimated
Mon 03:35:00 AM -25.5129 -59.6547 228° Southwest  Level Estimated
Mon 03:36:00 AM -25.5893 -59.7497 228° Southwest  Level Estimated
Mon 03:37:00 AM -25.6657 -59.8448 228° Southwest  Level Estimated
Mon 03:38:00 AM -25.7421 -59.9400 228° Southwest  Level Estimated
Mon 03:39:00 AM -25.8183 -60.0354 228° Southwest  Level Estimated
Mon 03:40:00 AM -25.8945 -60.1309 228° Southwest  Level Estimated
Mon 03:41:00 AM -25.9707 -60.2265 228° Southwest  Level Estimated
Mon 03:42:00 AM -26.0467 -60.3223 228° Southwest  Level Estimated
Mon 03:43:00 AM -26.1227 -60.4182 229° Southwest  Level Estimated
Mon 03:44:00 AM -26.1987 -60.5141 229° Southwest  Level Estimated
Mon 03:45:00 AM -26.2746 -60.6103 229° Southwest  Level Estimated
Mon 03:46:00 AM -26.3504 -60.7065 229° Southwest  Level Estimated
Mon 03:47:00 AM -26.4262 -60.8029 229° Southwest  Level Estimated
Mon 03:48:00 AM -26.5019 -60.8994 229° Southwest  Level Estimated
Mon 03:49:00 AM -26.5775 -60.9960 229° Southwest  Level Estimated
Mon 03:50:00 AM -26.6530 -61.0927 229° Southwest  Level Estimated
Mon 03:51:00 AM -26.7285 -61.1896 229° Southwest  Level Estimated
Mon 03:52:00 AM -26.8040 -61.2866 229° Southwest  Level Estimated
Mon 03:53:00 AM -26.8794 -61.3838 229° Southwest  Level Estimated
Mon 03:54:00 AM -26.9547 -61.4810 229° Southwest  Level Estimated
Mon 03:55:00 AM -27.0299 -61.5784 229° Southwest  Level Estimated
Mon 03:56:00 AM -27.1050 -61.6760 229° Southwest  Level Estimated
Mon 03:57:00 AM -27.1801 -61.7736 229° Southwest  Level Estimated
Mon 03:58:00 AM -27.2552 -61.8714 229° Southwest  Level Estimated
Mon 03:59:00 AM -27.3301 -61.9693 229° Southwest  Level Estimated
Mon 04:00:00 AM -27.4050 -62.0674 229° Southwest  Level Estimated
Mon 04:01:00 AM -27.4799 -62.1656 229° Southwest  Level Estimated
Mon 04:02:00 AM -27.5546 -62.2639 229° Southwest  Level Estimated
Mon 04:03:00 AM -27.6293 -62.3624 229° Southwest  Level Estimated
Mon 04:04:00 AM -27.7039 -62.4609 229° Southwest  Level Estimated
Mon 04:05:00 AM -27.7785 -62.5597 230° Southwest  Level Estimated
Mon 04:06:00 AM -27.8530 -62.6585 230° Southwest  Level Estimated
Mon 04:07:00 AM -27.9274 -62.7575 230° Southwest  Level Estimated
Mon 04:07:17 AM -23.0370 -47.1090 230° Southwest 202 232 3,400  Level FlightAware
Mon 04:07:52 AM -23.0650 -47.1330 218° Southwest 258 297 4,800 3,100 Climbing FlightAware
Mon 04:08:17 AM -23.0840 -47.1610 234° Southwest 263 303 6,500 4,200 Climbing FlightAware
Mon 04:08:32 AM -23.1000 -47.1740 217° Southwest 267 307 7,600 4,133 Climbing FlightAware
Mon 04:09:02 AM -23.1350 -47.1930 207° Southwest 282 325 9,600 2,965 Climbing FlightAware
Mon 04:09:57 AM -23.2040 -47.2260 204° Southwest 340 391 11,800 2,274 Climbing FlightAware
Mon 04:10:37 AM -23.2650 -47.2570 205° Southwest 380 437 13,200 2,824 Climbing FlightAware
Mon 04:11:22 AM -23.3380 -47.2930 204° Southwest 391 450 15,800 3,459 Climbing FlightAware
Mon 04:12:02 AM -23.4060 -47.3270 205° Southwest 390 449 18,100 3,176 Climbing FlightAware
Mon 04:12:47 AM -23.4840 -47.3670 205° Southwest 412 474 20,300 2,753 Climbing FlightAware
Mon 04:13:27 AM -23.5450 -47.4100 213° Southwest 421 484 22,000 2,720 Climbing FlightAware
Mon 04:14:02 AM -23.6020 -47.4600 219° Southwest 421 484 23,700 2,612 Climbing FlightAware
Mon 04:14:52 AM -23.6790 -47.5280 219° Southwest 440 506 25,700 2,171 Climbing FlightAware
Mon 04:15:47 AM -23.7630 -47.6010 218° Southwest 457 526 27,500 2,147 Climbing FlightAware
Mon 04:16:27 AM -23.8310 -47.6600 218° Southwest 463 533 29,100 2,188 Climbing FlightAware
Mon 04:17:12 AM -23.9060 -47.7250 218° Southwest 472 543 30,600 2,400 Climbing FlightAware
Mon 04:17:52 AM -23.9770 -47.7870 219° Southwest 466 536 32,500 2,612 Climbing FlightAware
Mon 04:18:37 AM -24.0470 -47.8480 219° Southwest 458 527 34,300 2,329 Climbing FlightAware
Mon 04:19:17 AM -24.1180 -47.9110 219° Southwest 452 520 35,800 1,275 Climbing FlightAware
Mon 04:19:57 AM -24.1870 -47.9720 219° Southwest 454 522 36,000 160 Climbing FlightAware
Mon 04:20:32 AM -24.2420 -48.0200 219° Southwest 452 520 36,000  Level FlightAware
Mon 04:21:27 AM -24.3330 -48.1010 219° Southwest 451 519 36,000  Level FlightAware
Mon 04:22:07 AM -24.3990 -48.1590 219° Southwest 451 519 36,000  Level FlightAware
Mon 04:22:47 AM -24.4640 -48.2160 219° Southwest 451 519 36,000  Level FlightAware
Mon 04:23:27 AM -24.5310 -48.2720 217° Southwest 456 525 36,000  Level FlightAware
Mon 04:24:12 AM -24.6100 -48.3350 216° Southwest 457 526 36,000  Level FlightAware
Mon 04:24:57 AM -24.6850 -48.3940 216° Southwest 457 526 36,000  Level FlightAware
Mon 04:25:37 AM -24.7540 -48.4490 216° Southwest 456 525 36,000  Level FlightAware
Mon 04:26:17 AM -24.8230 -48.5030 215° Southwest 454 522 36,000  Level FlightAware
Mon 04:26:57 AM -24.8890 -48.5550 216° Southwest 452 520 36,000  Level FlightAware
Mon 04:27:42 AM -24.9650 -48.6160 216° Southwest 449 517 36,000  Level FlightAware
Mon 04:28:27 AM -25.0420 -48.6770 216° Southwest 446 513 36,000  Level FlightAware
Mon 04:29:07 AM -25.1090 -48.7310 216° Southwest 446 513 36,000  Level FlightAware
Mon 04:29:52 AM -25.1860 -48.7920 216° Southwest 444 511 36,000  Level FlightAware
Mon 04:30:32 AM -25.2520 -48.8440 215° Southwest 442 509 36,000  Level FlightAware
Mon 04:31:12 AM -25.3190 -48.8980 216° Southwest 443 510 36,000  Level FlightAware
Mon 04:31:57 AM -25.3920 -48.9560 216° Southwest 444 511 36,000  Level FlightAware
Mon 04:32:37 AM -25.4590 -49.0100 216° Southwest 445 512 36,000  Level FlightAware
Mon 04:33:22 AM -25.5350 -49.0710 216° Southwest 443 510 36,000  Level FlightAware
Mon 04:34:02 AM -25.6020 -49.1250 216° Southwest 443 510 36,000  Level FlightAware
Mon 04:34:37 AM -25.6560 -49.1690 216° Southwest 444 511 36,000  Level FlightAware
Mon 04:35:22 AM -25.7350 -49.2320 216° Southwest 445 512 36,000  Level FlightAware
Mon 04:36:02 AM -25.8010 -49.2850 216° Southwest 445 512 36,000  Level FlightAware
Mon 04:36:47 AM -25.8720 -49.3430 216° Southwest 445 512 36,000  Level FlightAware
Mon 04:37:32 AM -25.9470 -49.4030 216° Southwest 447 514 36,000  Level FlightAware
Mon 04:38:12 AM -26.0140 -49.4580 216° Southwest 450 518 36,000  Level FlightAware
Mon 04:38:57 AM -26.0880 -49.5180 216° Southwest 449 517 36,000  Level FlightAware
Mon 04:39:37 AM -26.1540 -49.5720 216° Southwest 447 514 36,000  Level FlightAware
Mon 04:40:22 AM -26.2310 -49.6340 216° Southwest 451 519 36,000  Level FlightAware
Mon 04:41:02 AM -26.3000 -49.6900 216° Southwest 452 520 36,000  Level FlightAware
Mon 04:41:42 AM -26.3670 -49.7450 216° Southwest 451 519 36,000  Level FlightAware
Mon 04:42:22 AM -26.4350 -49.8010 216° Southwest 451 519 36,000  Level FlightAware
Mon 04:43:07 AM -26.5090 -49.8620 216° Southwest 448 516 36,000  Level FlightAware
Mon 04:43:52 AM -26.5850 -49.9240 216° Southwest 448 516 36,000  Level FlightAware
Mon 04:44:27 AM -26.6440 -49.9720 216° Southwest 448 516 36,000  Level FlightAware
Mon 04:45:12 AM -26.7180 -50.0340 217° Southwest 448 516 36,000  Level FlightAware
Mon 04:45:52 AM -26.7860 -50.0890 216° Southwest 448 516 36,000  Level FlightAware
Mon 04:46:37 AM -26.8600 -50.1500 216° Southwest 448 516 36,000  Level FlightAware
Mon 04:47:17 AM -26.9270 -50.2050 216° Southwest 450 518 36,000  Level FlightAware
Mon 04:47:57 AM -26.9920 -50.2600 217° Southwest 449 517 36,000  Level FlightAware
Mon 04:48:42 AM -27.0700 -50.3240 216° Southwest 446 513 36,000  Level FlightAware
Mon 04:49:37 AM -27.1570 -50.3960 216° Southwest 446 513 36,000  Level FlightAware
Mon 04:50:22 AM -27.2380 -50.4640 217° Southwest 446 513 36,000  Level FlightAware
Mon 04:50:57 AM -27.2920 -50.5090 217° Southwest 447 514 36,000  Level FlightAware
Mon 04:51:47 AM -27.3730 -50.5760 216° Southwest 446 513 36,000  Level FlightAware
Mon 04:52:17 AM -27.4280 -50.6230 217° Southwest 447 514 36,000  Level FlightAware
Mon 04:53:07 AM -27.5130 -50.6950 217° Southwest 445 512 36,000  Level FlightAware
Mon 04:53:47 AM -27.5740 -50.7450 216° Southwest 445 512 36,000  Level FlightAware
Mon 04:54:32 AM -27.6520 -50.8110 217° Southwest 445 512 36,000  Level FlightAware
Mon 04:55:17 AM -27.7260 -50.8730 217° Southwest 442 509 36,000  Level FlightAware
Mon 04:55:57 AM -27.7930 -50.9300 217° Southwest 439 505 36,000  Level FlightAware
Mon 04:56:37 AM -27.8570 -50.9840 217° Southwest 439 505 36,000  Level FlightAware
Mon 04:57:22 AM -27.9290 -51.0450 217° Southwest 437 503 36,000  Level FlightAware
Mon 04:58:02 AM -27.9940 -51.1000 217° Southwest 438 504 36,000  Level FlightAware
Mon 04:58:47 AM -28.0690 -51.1630 217° Southwest 436 502 36,000  Level FlightAware
Mon 04:59:27 AM -28.1270 -51.2130 217° Southwest 437 503 36,000  Level FlightAware
Mon 05:00:07 AM -28.1980 -51.2740 217° Southwest 438 504 36,000  Level FlightAware
Mon 05:00:52 AM -28.2680 -51.3340 217° Southwest 440 506 36,000  Level FlightAware
Mon 05:01:32 AM -28.3340 -51.3900 217° Southwest 439 505 36,000  Level FlightAware
Mon 05:02:17 AM -28.4080 -51.4540 217° Southwest 439 505 36,000  Level FlightAware
Mon 05:02:57 AM -28.4740 -51.5100 217° Southwest 441 507 36,000  Level FlightAware
Mon 05:03:42 AM -28.5470 -51.5720 217° Southwest 441 507 36,000  Level FlightAware
Mon 05:04:22 AM -28.6120 -51.6280 217° Southwest 443 510 36,000  Level FlightAware
Mon 05:05:02 AM -28.6770 -51.6840 217° Southwest 443 510 36,000  Level FlightAware
Mon 05:05:47 AM -28.7520 -51.7490 217° Southwest 446 513 36,000  Level FlightAware
Mon 05:06:27 AM -28.8180 -51.8060 217° Southwest 451 519 36,000  Level FlightAware
Mon 05:07:07 AM -28.8840 -51.8640 218° Southwest 450 518 36,000  Level FlightAware
Mon 05:07:52 AM -28.9580 -51.9280 217° Southwest 450 518 36,000  Level FlightAware
Mon 05:08:32 AM -29.0240 -51.9860 218° Southwest 453 521 36,000  Level FlightAware
Mon 05:09:12 AM -29.0910 -52.0440 217° Southwest 457 526 36,000  Level FlightAware
Mon 05:09:57 AM -29.1690 -52.1120 217° Southwest 459 528 36,000  Level FlightAware
Mon 05:10:37 AM -29.2360 -52.1700 217° Southwest 461 531 36,000  Level FlightAware
Mon 05:11:22 AM -29.3120 -52.2370 218° Southwest 464 534 36,000  Level FlightAware
Mon 05:12:02 AM -29.3790 -52.2950 217° Southwest 464 534 36,000  Level FlightAware
Mon 05:12:47 AM -29.4580 -52.3650 218° Southwest 462 532 36,000  Level FlightAware
Mon 05:13:27 AM -29.5260 -52.4250 218° Southwest 461 531 36,000  Level FlightAware
Mon 05:14:12 AM -29.5970 -52.4870 217° Southwest 461 531 36,000  Level FlightAware
Mon 05:14:52 AM -29.6550 -52.5370 217° Southwest 461 531 36,000  Level FlightAware
Mon 05:15:32 AM -29.7340 -52.6090 218° Southwest 458 527 36,000  Level FlightAware
Mon 05:16:17 AM -29.8060 -52.6730 218° Southwest 456 525 36,000  Level FlightAware
Mon 05:16:47 AM -29.8600 -52.7210 218° Southwest 455 524 36,000  Level FlightAware
Mon 05:17:42 AM -29.9510 -52.8020 218° Southwest 451 519 36,000  Level FlightAware
Mon 05:18:12 AM -29.9950 -52.8410 218° Southwest 451 519 36,000  Level FlightAware
Mon 05:18:57 AM -30.0770 -52.9140 218° Southwest 445 512 36,000  Level FlightAware
Mon 05:19:47 AM -30.1560 -52.9850 218° Southwest 434 499 36,000  Level FlightAware
Mon 05:20:27 AM -30.2200 -53.0420 218° Southwest 433 498 36,000  Level FlightAware
Mon 05:21:07 AM -30.2820 -53.0980 218° Southwest 431 496 36,000  Level FlightAware
Mon 05:21:52 AM -30.3480 -53.1570 218° Southwest 430 495 36,000  Level FlightAware
Mon 05:22:32 AM -30.4010 -53.2050 218° Southwest 430 495 36,000  Level FlightAware
Mon 05:23:12 AM -30.4770 -53.2730 218° Southwest 430 495 36,000  Level FlightAware
Mon 05:24:07 AM -30.5600 -53.3490 218° Southwest 430 495 36,000  Level FlightAware
Mon 05:24:52 AM -30.6350 -53.4170 218° Southwest 432 497 36,000  Level FlightAware
Mon 05:25:37 AM -30.7070 -53.4820 218° Southwest 430 495 36,000  Level FlightAware
Mon 05:26:17 AM -30.7630 -53.5330 218° Southwest 430 495 36,000  Level FlightAware
Mon 05:26:57 AM -30.8330 -53.5970 218° Southwest 432 497 36,000  Level FlightAware
Mon 05:27:42 AM -30.9020 -53.6600 218° Southwest 430 495 36,000  Level FlightAware
Mon 05:28:17 AM -30.9520 -53.7060 218° Southwest 429 494 36,000  Level FlightAware
Mon 05:29:07 AM -31.0360 -53.7830 218° Southwest 427 491 36,000  Level FlightAware
Mon 05:29:47 AM -31.0970 -53.8390 218° Southwest 427 491 36,000  Level FlightAware
Mon 05:30:27 AM -31.1540 -53.8910 218° Southwest 428 493 36,000  Level FlightAware
Mon 05:31:02 AM -31.2100 -53.9430 218° Southwest 36,000  Level FlightAware
Mon 05:31:47 AM -31.2790 -54.0060 218° Southwest 427 491 36,000  Level FlightAware
Mon 05:32:32 AM -31.3470 -54.0690 218° Southwest 425 489 36,000  Level FlightAware
Mon 05:33:27 AM -31.4290 -54.1520 221° Southwest 423 487 36,000  Level FlightAware
Mon 05:34:07 AM -31.4780 -54.2040 222° Southwest 423 487 36,000  Level FlightAware
Mon 05:34:57 AM -31.5400 -54.2700 222° Southwest 423 487 36,000  Level FlightAware
Mon 05:35:37 AM -31.5900 -54.3220 222° Southwest 423 487 36,000  Level FlightAware
Mon 05:36:17 AM -31.6390 -54.3740 222° Southwest 423 487 36,000  Level FlightAware
Mon 05:36:57 AM -31.6890 -54.4260 222° Southwest 423 487 36,000  Level FlightAware
Mon 05:37:37 AM -31.7380 -54.4790 223° Southwest 423 487 36,000  Level FlightAware
Mon 05:38:27 AM -31.8000 -54.5440 222° Southwest 423 487 36,000  Level FlightAware
Mon 05:39:07 AM -31.8490 -54.5970 223° Southwest 423 487 36,000  Level FlightAware
Mon 05:39:47 AM -31.8990 -54.6490 221° Southwest 423 487 36,000  Level FlightAware
Mon 05:40:27 AM -31.9480 -54.7020 223° Southwest 423 487 36,000  Level FlightAware
Mon 05:41:07 AM -31.9980 -54.7540 221° Southwest 423 487 36,000  Level FlightAware
Mon 05:41:57 AM -32.0590 -54.8200 223° Southwest 423 487 36,000  Level FlightAware
Mon 05:42:37 AM -32.1090 -54.8720 221° Southwest 423 487 36,000  Level FlightAware
Mon 05:45:00 AM -32.1550 -55.1907 260° West  Level Estimated
Mon 05:46:00 AM -32.1741 -55.3244 260° West  Level Estimated
Mon 05:47:00 AM -32.1931 -55.4583 260° West  Level Estimated
Mon 05:48:00 AM -32.2119 -55.5922 261° West  Level Estimated
Mon 05:49:00 AM -32.2305 -55.7262 261° West  Level Estimated
Mon 05:49:22 AM -32.7270 -55.7150 261° West 422 486 36,000  Level FlightAware
Mon 05:50:17 AM -32.8040 -55.8090 226° Southwest 424 488 36,000  Level FlightAware
Mon 05:50:52 AM -32.8540 -55.8710 226° Southwest 422 486 36,000  Level FlightAware
Mon 05:51:57 AM -32.9370 -55.9740 226° Southwest 423 487 36,000  Level FlightAware
Mon 05:52:37 AM -32.9930 -56.0440 226° Southwest 423 487 36,000  Level FlightAware
Mon 05:53:22 AM -33.0540 -56.1190 226° Southwest 423 487 36,000  Level FlightAware
Mon 05:54:02 AM -33.1060 -56.1830 226° Southwest 423 487 36,000  Level FlightAware
Mon 05:54:42 AM -33.1650 -56.2560 226° Southwest 423 487 36,000  Level FlightAware
Mon 05:55:22 AM -33.2180 -56.3240 227° Southwest 421 484 36,000  Level FlightAware
Mon 05:56:07 AM -33.2790 -56.3990 226° Southwest 420 483 36,000 -600 Level FlightAware
Mon 05:57:12 AM -33.3610 -56.5020 226° Southwest 421 484 34,900 -1,252 Descending FlightAware
Mon 05:58:02 AM -33.4310 -56.6000 229° Southwest 428 493 33,600 -1,533 Descending FlightAware
Mon 05:58:42 AM -33.4840 -56.6740 229° Southwest 434 499 32,600 -1,500 Descending FlightAware
Mon 05:59:22 AM -33.5370 -56.7480 229° Southwest 436 502 31,600 -1,482 Descending FlightAware
Mon 06:00:07 AM -33.5970 -56.8320 229° Southwest 441 507 30,500 -1,412 Descending FlightAware
Mon 06:00:47 AM -33.6500 -56.9060 229° Southwest 448 516 29,600 -1,412 Descending FlightAware
Mon 06:01:32 AM -33.7110 -56.9920 230° Southwest 449 517 28,500 -1,482 Descending FlightAware
Mon 06:02:12 AM -33.7640 -57.0660 229° Southwest 448 516 27,500 -1,482 Descending FlightAware
Mon 06:02:57 AM -33.8250 -57.1520 229° Southwest 430 495 26,400 -1,482 Descending FlightAware
Mon 06:03:37 AM -33.8730 -57.2210 230° Southwest 405 466 25,400 -1,500 Descending FlightAware
Mon 06:04:17 AM -33.9220 -57.2900 229° Southwest 396 456 24,400 -1,482 Descending FlightAware
Mon 06:05:02 AM -33.9740 -57.3650 230° Southwest 391 450 23,300 -1,482 Descending FlightAware
Mon 06:05:42 AM -34.0200 -57.4310 230° Southwest 385 443 22,300 -1,553 Descending FlightAware
Mon 06:06:27 AM -34.0730 -57.5060 230° Southwest 383 441 21,100 -1,500 Descending FlightAware
Mon 06:07:22 AM -34.1340 -57.5930 230° Southwest 383 441 19,800 -1,516 Descending FlightAware
Mon 06:08:02 AM -34.1790 -57.6580 230° Southwest 378 435 18,700 -1,906 Descending FlightAware
Mon 06:08:47 AM -34.2310 -57.7330 230° Southwest 367 422 17,100 -2,329 Descending FlightAware
Mon 06:09:27 AM -34.2760 -57.7900 226° Southwest 330 380 15,400 -2,100 Descending FlightAware
Mon 06:10:07 AM -34.3210 -57.8280 215° Southwest 281 323 14,300 -1,694 Descending FlightAware
Mon 06:10:52 AM -34.3670 -57.8610 211° Southwest 265 305 13,000 -1,906 Descending FlightAware
Mon 06:11:32 AM -34.4110 -57.8920 210° Southwest 281 323 11,600 -1,800 Descending FlightAware
Mon 06:12:12 AM -34.4580 -57.9250 210° Southwest 297 342 10,600 -1,341 Descending FlightAware
Mon 06:12:57 AM -34.5110 -57.9640 211° Southwest 286 329 9,700 -1,286 Descending FlightAware
Mon 06:13:22 AM -34.5380 -57.9820 209° Southwest 260 299 9,100 -1,309 Descending FlightAware
Mon 06:13:52 AM -34.5670 -58.0030 211° Southwest 235 270 8,500 -873 Descending FlightAware
Mon 06:14:17 AM -34.5910 -58.0210 212° Southwest 224 258 8,300 -655 Descending FlightAware
Mon 06:14:47 AM -34.6170 -58.0390 210° Southwest 216 249 7,900 -873 Descending FlightAware
Mon 06:15:12 AM -34.6380 -58.0540 210° Southwest 213 245 7,500 -1,000 Descending FlightAware
Mon 06:15:47 AM -34.6680 -58.0760 211° Southwest 211 243 6,900 -1,000 Descending FlightAware
Mon 06:16:12 AM -34.6880 -58.0900 210° Southwest 211 243 6,500 -982 Descending FlightAware
Mon 06:16:42 AM -34.7130 -58.1080 211° Southwest 210 242 6,000 -1,067 Descending FlightAware
Mon 06:16:57 AM -34.7260 -58.1170 210° Southwest 210 242 5,700 -1,050 Descending FlightAware
Mon 06:17:22 AM -34.7460 -58.1320 212° Southwest 208 239 5,300 -873 Descending FlightAware
Mon 06:17:52 AM -34.7720 -58.1500 210° Southwest 213 245 4,900 -300 Descending FlightAware
Mon 06:18:22 AM -34.7970 -58.1680 211° Southwest 207 238 5,000  Climbing FlightAware
Mon 06:18:32 AM -34.8050 -58.1740 212° Southwest 205 236 4,900  Descending FlightAware
Mon 06:19:02 AM -34.8270 -58.1900 211° Southwest 185 213 5,000 100 Climbing FlightAware
Mon 06:19:32 AM -34.8480 -58.2050 210° Southwest 164 189 5,000 -133 Level FlightAware
Mon 06:19:47 AM -34.8570 -58.2150 222° Southwest 161 185 4,900 -480 Descending FlightAware
Mon 06:19:57 AM -34.8600 -58.2230 245° Southwest 166 191 4,800 -800 Descending FlightAware
Mon 06:20:02 AM -34.8600 -58.2260 270° West 169 194 4,700 -1,400 Descending FlightAware
Mon 06:20:27 AM -34.8570 -58.2530 278° West 177 204 4,100 -1,320 Descending FlightAware
Mon 06:20:52 AM -34.8540 -58.2760 279° West 181 208 3,600 -1,200 Descending FlightAware
Mon 06:21:22 AM -34.8500 -58.3080 279° West 183 211 3,000 -1,200 Descending FlightAware
Mon 06:21:32 AM -34.8490 -58.3170 278° West 180 207 2,800 -1,333 Descending FlightAware
Mon 06:22:07 AM -34.8450 -58.3520 278° West 165 190 2,000 -900 Descending FlightAware
Mon 06:22:32 AM -34.8430 -58.3730 277° West 151 174 1,900  Descending FlightAware
Mon 06:23:02 AM -34.8400 -58.3980 278° West 140 161 2,000 -218 Climbing FlightAware
Mon 06:23:27 AM -34.8380 -58.4180 277° West 134 154 1,700 -655 Descending FlightAware
Mon 06:23:57 AM -34.8350 -58.4380 280° West 135 155 1,400 -700 Descending FlightAware
Mon 06:24:27 AM -34.8340 -58.4610 273° West 135 155 1,000 -873 Descending FlightAware
Mon 06:24:52 AM -34.8320 -58.4820 277° West 143 165 600 -873 Descending FlightAware
Mon 06:25:22 AM -34.8280 -58.5060 281° West 137 158 200 -800 Descending FlightAware
Mon 06:27:00 AM -34.8129 -58.7338 275° West  Level Estimated
Mon 06:28:00 AM -34.8035 -58.8732 275° West  Level Estimated
Mon 06:29:00 AM -34.7938 -59.0126 275° West  Level Estimated
Mon 06:30:00 AM -34.7841 -59.1519 275° West  Level Estimated
Mon 06:31:00 AM -34.7741 -59.2912 275° West  Level Estimated
Mon 06:32:00 AM -34.7640 -59.4305 275° West  Level Estimated
Mon 06:33:00 AM -34.7538 -59.5698 275° West  Level Estimated
Mon 06:34:00 AM -34.7434 -59.7090 275° West  Level Estimated
Mon 06:35:00 AM -34.7328 -59.8481 275° West  Level Estimated
Mon 06:36:00 AM -34.7221 -59.9873 275° West  Level Estimated
Mon 06:37:00 AM -34.7112 -60.1264 275° West  Level Estimated
Mon 06:38:00 AM -34.7002 -60.2654 275° West  Level Estimated
Mon 06:39:00 AM -34.6890 -60.4045 276° West  Level Estimated
Mon 06:40:00 AM -34.6777 -60.5435 276° West  Level Estimated
Mon 06:41:00 AM -34.6661 -60.6824 276° West  Level Estimated
Mon 06:42:00 AM -34.6545 -60.8213 276° West  Level Estimated
Mon 06:43:00 AM -34.6426 -60.9602 276° West  Level Estimated
Mon 06:44:00 AM -34.6307 -61.0990 276° West  Level Estimated
Mon 06:45:00 AM -34.6185 -61.2378 276° West  Level Estimated
Mon 06:46:00 AM -34.6062 -61.3766 276° West  Level Estimated
Mon 06:47:00 AM -34.5938 -61.5153 276° West  Level Estimated
Mon 06:48:00 AM -34.5812 -61.6539 276° West  Level Estimated
Mon 06:49:00 AM -34.5684 -61.7926 276° West  Level Estimated
Mon 06:50:00 AM -34.5555 -61.9312 276° West  Level Estimated
Mon 06:51:00 AM -34.5424 -62.0697 277° West  Level Estimated
Mon 06:52:00 AM -34.5291 -62.2082 277° West  Level Estimated
Mon 06:53:00 AM -34.5158 -62.3467 277° West  Level Estimated
Mon 06:54:00 AM -34.5022 -62.4851 277° West  Level Estimated
Mon 06:55:00 AM -34.4885 -62.6234 277° West  Level Estimated
Mon 06:56:00 AM -34.4746 -62.7617 277° West  Level Estimated
Mon 06:57:00 AM -34.4606 -62.9000 277° West  Level Estimated
Mon 06:58:00 AM -34.4464 -63.0382 277° West  Level Estimated
Mon 06:59:00 AM -34.4321 -63.1764 277° West  Level Estimated
Mon 07:00:00 AM -34.4176 -63.3146 277° West  Level Estimated
Mon 07:01:00 AM -34.4030 -63.4526 277° West  Level Estimated
Mon 07:02:00 AM -34.3882 -63.5907 277° West  Level Estimated
Mon 07:03:00 AM -34.3732 -63.7286 277° West  Level Estimated
Mon 07:04:00 AM -34.3582 -63.8666 278° West  Level Estimated
Mon 07:05:00 AM -34.3429 -64.0045 278° West  Level Estimated
Mon 07:06:00 AM -34.3275 -64.1423 278° West  Level Estimated
Mon 07:07:00 AM -34.3119 -64.2801 278° West  Level Estimated
Mon 07:08:00 AM -34.2962 -64.4178 278° West  Level Estimated
Mon 07:09:00 AM -34.2803 -64.5555 278° West  Level Estimated
Mon 07:10:00 AM -34.2643 -64.6931 278° West  Level Estimated
Mon 07:11:00 AM -34.2481 -64.8307 278° West  Level Estimated
Mon 07:12:00 AM -34.2318 -64.9682 278° West  Level Estimated
Mon 07:13:00 AM -34.2153 -65.1057 278° West  Level Estimated
Mon 07:14:00 AM -34.1986 -65.2431 278° West  Level Estimated
Mon 07:15:00 AM -34.1818 -65.3805 278° West  Level Estimated
Mon 07:16:00 AM -34.1649 -65.5178 278° West  Level Estimated
Mon 07:17:00 AM -34.1478 -65.6550 279° West  Level Estimated
Mon 07:18:00 AM -34.1305 -65.7922 279° West  Level Estimated
Mon 07:19:00 AM -34.1131 -65.9294 279° West  Level Estimated
Mon 07:20:00 AM -34.0956 -66.0664 279° West  Level Estimated
Mon 07:21:00 AM -34.0778 -66.2035 279° West  Level Estimated
Mon 07:22:00 AM -34.0600 -66.3404 279° West  Level Estimated
Mon 07:23:00 AM -34.0420 -66.4773 279° West  Level Estimated
Mon 07:24:00 AM -34.0238 -66.6142 279° West  Level Estimated
Mon 07:25:00 AM -34.0055 -66.7510 279° West  Level Estimated
Mon 07:26:00 AM -33.9870 -66.8877 279° West  Level Estimated
Mon 07:27:00 AM -33.9684 -67.0244 279° West  Level Estimated
Mon 07:28:00 AM -33.9496 -67.1610 279° West  Level Estimated
Mon 07:29:00 AM -33.9307 -67.2975 279° West  Level Estimated
Mon 07:30:00 AM -33.9116 -67.4340 280° West  Level Estimated
Mon 07:31:00 AM -33.8924 -67.5705 280° West  Level Estimated
Mon 07:32:00 AM -33.8730 -67.7068 280° West  Level Estimated
Mon 07:33:00 AM -33.8535 -67.8431 280° West  Level Estimated
Mon 07:34:00 AM -33.8338 -67.9794 280° West  Level Estimated
Mon 07:35:00 AM -33.8139 -68.1156 280° West  Level Estimated
Mon 07:36:00 AM -33.7940 -68.2517 280° West  Level Estimated
Mon 07:37:00 AM -33.7738 -68.3877 280° West  Level Estimated
Mon 07:38:00 AM -33.7536 -68.5237 280° West  Level Estimated
Mon 07:39:00 AM -33.7332 -68.6596 280° West  Level Estimated
Mon 07:40:00 AM -33.7126 -68.7955 280° West  Level Estimated
Mon 07:41:00 AM -33.6919 -68.9313 280° West  Level Estimated
Mon 07:42:00 AM -33.6710 -69.0670 280° West  Level Estimated
Mon 07:43:00 AM -33.6500 -69.2027 281° West  Level Estimated
Mon 07:44:00 AM -33.6288 -69.3383 281° West  Level Estimated
Mon 07:45:00 AM -33.6075 -69.4738 281° West  Level Estimated
Mon 07:46:00 AM -33.5860 -69.6093 281° West  Level Estimated
Mon 07:47:00 AM -33.5644 -69.7447 281° West  Level Estimated
Mon 07:48:00 AM -33.5427 -69.8800 281° West  Level Estimated
Mon 07:49:00 AM -33.5208 -70.0153 281° West  Level Estimated
Mon 07:50:00 AM -33.4987 -70.1504 281° West  Level Estimated
Mon 07:51:00 AM -33.4765 -70.2856 281° West  Level Estimated
Mon 07:52:00 AM -33.4542 -70.4206 281° West  Level Estimated
Mon 07:53:00 AM -33.4317 -70.5556 281° West  Level Estimated

Login

Don't have an account? Register now (free) for customized features, flight alerts, and more!